PWSweather.com
Personal Weather Stations
Station Observations
ELGHEKO
El Gheko Neighborhood Association, Tucson, AZ 85710

El Gheko Neighborhood AssociationTucson, AZ 85710

Lat: 32.226108, Lon: -110.84443

Elevation: 2598

Station Type: Davis 6153 Vantage Pro 2

http://www.elgheko.us

High Low Average
Temperature 101.8°F38.8°C 73.0°F22.8°C 88.1°F31.2°C
Dew Point 55.0°F12.8°C 46.4°F8.0°C 51.2°F10.7°C
Winds 12.0 mph 19.3 kmh Calm Calm 2.0 mph SW3.2 kmh SW
Wind Gusts 17.0 mph27.4 kmh -- 6.0 mph9.7 kmh
Humidity 49% 16% 30%
Pressure 29.73 in1006.8 mb 29.57 in1001.4 mb -
Precipitation 0.00 in0.0 mm - -
Hour Temp Dew Point Humidity Winds Wind Gusts Pressure Precip Precip Rate Daily Precip Total
12:00 AM 83.9°F28.8°C 52.5°F11.4°C 34% 2.0 mph S3.2 kmh S 5.0 mph8.0 kmh 29.67 in1004.7 mb 0.00 in0.0 mm 0.00 in0.0 mm 0.00 in0.0 mm
12:01 AM 83.9°F28.8°C 53.0°F11.7°C 34% Calm Calm 5.0 mph8.0 kmh 29.67 in1004.7 mb 0.00 in0.0 mm 0.00 in0.0 mm 0.00 in0.0 mm
12:05 AM 83.8°F28.8°C 52.4°F11.3°C 34% 2.0 mph S3.2 kmh S 4.0 mph6.4 kmh 29.67 in1004.7 mb 0.00 in0.0 mm 0.00 in0.0 mm 0.00 in0.0 mm
12:06 AM 83.8°F28.8°C 53.0°F11.7°C 34% 1.0 mph S1.6 kmh S 3.0 mph4.8 kmh 29.67 in1004.7 mb 0.00 in0.0 mm 0.00 in0.0 mm 0.00 in0.0 mm
12:10 AM 83.7°F28.7°C 52.3°F11.3°C 34% 1.0 mph S1.6 kmh S 4.0 mph6.4 kmh 29.67 in1004.7 mb 0.00 in0.0 mm 0.00 in0.0 mm 0.00 in0.0 mm
12:11 AM 83.7°F28.7°C 52.0°F11.1°C 34% 3.0 mph S4.8 kmh S 4.0 mph6.4 kmh 29.67 in1004.7 mb 0.00 in0.0 mm 0.00 in0.0 mm 0.00 in0.0 mm
12:15 AM 83.6°F28.7°C 52.3°F11.3°C 34% 1.0 mph S1.6 kmh S 4.0 mph6.4 kmh 29.67 in1004.7 mb 0.00 in0.0 mm 0.00 in0.0 mm 0.00 in0.0 mm
12:16 AM 83.6°F28.7°C 52.0°F11.1°C 34% 1.0 mph S1.6 kmh S 4.0 mph6.4 kmh 29.67 in1004.7 mb 0.00 in0.0 mm 0.00 in0.0 mm 0.00 in0.0 mm
12:20 AM 83.5°F28.6°C 52.2°F11.2°C 34% 1.0 mph S1.6 kmh S 3.0 mph4.8 kmh 29.67 in1004.7 mb 0.00 in0.0 mm 0.00 in0.0 mm 0.00 in0.0 mm
12:21 AM 83.5°F28.6°C 52.0°F11.1°C 34% Calm Calm 3.0 mph4.8 kmh 29.67 in1004.7 mb 0.00 in0.0 mm 0.00 in0.0 mm 0.00 in0.0 mm
12:25 AM 83.4°F28.6°C 52.9°F11.6°C 35% 1.0 mph S1.6 kmh S 2.0 mph3.2 kmh 29.67 in1004.7 mb 0.00 in0.0 mm 0.00 in0.0 mm 0.00 in0.0 mm
12:26 AM 83.4°F28.6°C 53.0°F11.7°C 35% 1.0 mph S1.6 kmh S 2.0 mph3.2 kmh 29.67 in1004.7 mb 0.00 in0.0 mm 0.00 in0.0 mm 0.00 in0.0 mm
12:30 AM 83.2°F28.4°C 52.7°F11.5°C 35% 1.0 mph S1.6 kmh S 2.0 mph3.2 kmh 29.67 in1004.7 mb 0.00 in0.0 mm 0.00 in0.0 mm 0.00 in0.0 mm
12:31 AM 83.2°F28.4°C 53.0°F11.7°C 35% Calm Calm 2.0 mph3.2 kmh 29.67 in1004.7 mb 0.00 in0.0 mm 0.00 in0.0 mm 0.00 in0.0 mm
12:35 AM 83.1°F28.4°C 52.6°F11.4°C 35% Calm Calm 2.0 mph3.2 kmh 29.67 in1004.7 mb 0.00 in0.0 mm 0.00 in0.0 mm 0.00 in0.0 mm
12:36 AM 83.1°F28.4°C 53.0°F11.7°C 35% Calm Calm 2.0 mph3.2 kmh 29.67 in1004.7 mb 0.00 in0.0 mm 0.00 in0.0 mm 0.00 in0.0 mm
12:40 AM 82.9°F28.3°C 52.4°F11.3°C 35% Calm Calm -- 29.67 in1004.7 mb 0.00 in0.0 mm 0.00 in0.0 mm 0.00 in0.0 mm
12:41 AM 82.9°F28.3°C 53.0°F11.7°C 35% Calm Calm -- 29.67 in1004.7 mb 0.00 in0.0 mm 0.00 in0.0 mm 0.00 in0.0 mm
12:45 AM 82.7°F28.2°C 52.3°F11.3°C 35% Calm Calm 2.0 mph3.2 kmh 29.67 in1004.7 mb 0.00 in0.0 mm 0.00 in0.0 mm 0.00 in0.0 mm
12:46 AM 82.7°F28.2°C 52.0°F11.1°C 35% 1.0 mph S1.6 kmh S 2.0 mph3.2 kmh 29.67 in1004.7 mb 0.00 in0.0 mm 0.00 in0.0 mm 0.00 in0.0 mm
12:50 AM 82.4°F28.0°C 52.8°F11.6°C 36% 1.0 mph S1.6 kmh S 2.0 mph3.2 kmh 29.67 in1004.7 mb 0.00 in0.0 mm 0.00 in0.0 mm 0.00 in0.0 mm
12:51 AM 82.4°F28.0°C 53.0°F11.7°C 36% Calm Calm 2.0 mph3.2 kmh 29.67 in1004.7 mb 0.00 in0.0 mm 0.00 in0.0 mm 0.00 in0.0 mm
12:55 AM 82.2°F27.9°C 52.6°F11.4°C 36% Calm Calm 2.0 mph3.2 kmh 29.67 in1004.7 mb 0.00 in0.0 mm 0.00 in0.0 mm 0.00 in0.0 mm
12:56 AM 82.2°F27.9°C 53.0°F11.7°C 36% Calm Calm 2.0 mph3.2 kmh 29.67 in1004.7 mb 0.00 in0.0 mm 0.00 in0.0 mm 0.00 in0.0 mm
01:00 AM 81.9°F27.7°C 52.3°F11.3°C 36% 1.0 mph S1.6 kmh S 3.0 mph4.8 kmh 29.67 in1004.7 mb 0.00 in0.0 mm 0.00 in0.0 mm 0.00 in0.0 mm
01:01 AM 81.8°F27.7°C 53.0°F11.7°C 37% 2.0 mph S3.2 kmh S 3.0 mph4.8 kmh 29.67 in1004.7 mb 0.00 in0.0 mm 0.00 in0.0 mm 0.00 in0.0 mm
01:05 AM 81.6°F27.6°C 52.8°F11.6°C 37% 1.0 mph S1.6 kmh S 3.0 mph4.8 kmh 29.67 in1004.7 mb 0.00 in0.0 mm 0.00 in0.0 mm 0.00 in0.0 mm
01:06 AM 81.6°F27.6°C 53.0°F11.7°C 37% 1.0 mph S1.6 kmh S 3.0 mph4.8 kmh 29.67 in1004.7 mb 0.00 in0.0 mm 0.00 in0.0 mm 0.00 in0.0 mm
01:10 AM 81.4°F27.4°C 53.4°F11.9°C 38% 1.0 mph S1.6 kmh S 3.0 mph4.8 kmh 29.67 in1004.7 mb 0.00 in0.0 mm 0.00 in0.0 mm 0.00 in0.0 mm
01:11 AM 81.3°F27.4°C 53.0°F11.7°C 38% 2.0 mph S3.2 kmh S 3.0 mph4.8 kmh 29.67 in1004.7 mb 0.00 in0.0 mm 0.00 in0.0 mm 0.00 in0.0 mm
01:15 AM 81.0°F27.2°C 53.0°F11.7°C 38% 1.0 mph S1.6 kmh S 2.0 mph3.2 kmh 29.67 in1004.7 mb 0.00 in0.0 mm 0.00 in0.0 mm 0.00 in0.0 mm
01:16 AM 81.0°F27.2°C 53.0°F11.7°C 38% Calm Calm 2.0 mph3.2 kmh 29.67 in1004.7 mb 0.00 in0.0 mm 0.00 in0.0 mm 0.00 in0.0 mm
01:20 AM 80.8°F27.1°C 52.8°F11.6°C 38% 1.0 mph S1.6 kmh S 2.0 mph3.2 kmh 29.67 in1004.7 mb 0.00 in0.0 mm 0.00 in0.0 mm 0.00 in0.0 mm
01:21 AM 80.8°F27.1°C 53.0°F11.7°C 38% 1.0 mph S1.6 kmh S 2.0 mph3.2 kmh 29.67 in1004.7 mb 0.00 in0.0 mm 0.00 in0.0 mm 0.00 in0.0 mm
01:25 AM 80.6°F27.0°C 52.6°F11.4°C 38% Calm Calm 2.0 mph3.2 kmh 29.67 in1004.7 mb 0.00 in0.0 mm 0.00 in0.0 mm 0.00 in0.0 mm
01:26 AM 80.6°F27.0°C 53.0°F11.7°C 38% 2.0 mph S3.2 kmh S 2.0 mph3.2 kmh 29.67 in1004.7 mb 0.00 in0.0 mm 0.00 in0.0 mm 0.00 in0.0 mm
01:30 AM 80.3°F26.8°C 53.1°F11.7°C 39% 2.0 mph S3.2 kmh S 4.0 mph6.4 kmh 29.67 in1004.7 mb 0.00 in0.0 mm 0.00 in0.0 mm 0.00 in0.0 mm
01:31 AM 80.3°F26.8°C 53.0°F11.7°C 39% 2.0 mph S3.2 kmh S 4.0 mph6.4 kmh 29.67 in1004.7 mb 0.00 in0.0 mm 0.00 in0.0 mm 0.00 in0.0 mm
01:35 AM 80.1°F26.7°C 52.9°F11.6°C 39% 2.0 mph S3.2 kmh S 4.0 mph6.4 kmh 29.67 in1004.7 mb 0.00 in0.0 mm 0.00 in0.0 mm 0.00 in0.0 mm
01:36 AM 80.1°F26.7°C 53.0°F11.7°C 39% 2.0 mph S3.2 kmh S 4.0 mph6.4 kmh 29.67 in1004.7 mb 0.00 in0.0 mm 0.00 in0.0 mm 0.00 in0.0 mm
01:40 AM 79.9°F26.6°C 53.4°F11.9°C 40% 1.0 mph S1.6 kmh S 3.0 mph4.8 kmh 29.67 in1004.7 mb 0.00 in0.0 mm 0.00 in0.0 mm 0.00 in0.0 mm
01:41 AM 79.9°F26.6°C 53.0°F11.7°C 40% 3.0 mph S4.8 kmh S 3.0 mph4.8 kmh 29.67 in1004.7 mb 0.00 in0.0 mm 0.00 in0.0 mm 0.00 in0.0 mm
01:45 AM 79.7°F26.5°C 53.2°F11.8°C 40% 1.0 mph S1.6 kmh S 3.0 mph4.8 kmh 29.67 in1004.7 mb 0.00 in0.0 mm 0.00 in0.0 mm 0.00 in0.0 mm
01:46 AM 79.7°F26.5°C 53.0°F11.7°C 40% 1.0 mph S1.6 kmh S 3.0 mph4.8 kmh 29.67 in1004.7 mb 0.00 in0.0 mm 0.00 in0.0 mm 0.00 in0.0 mm
01:50 AM 79.6°F26.4°C 53.1°F11.7°C 40% 1.0 mph S1.6 kmh S 3.0 mph4.8 kmh 29.67 in1004.7 mb 0.00 in0.0 mm 0.00 in0.0 mm 0.00 in0.0 mm
01:51 AM 79.6°F26.4°C 53.0°F11.7°C 40% 1.0 mph S1.6 kmh S 2.0 mph3.2 kmh 29.67 in1004.7 mb 0.00 in0.0 mm 0.00 in0.0 mm 0.00 in0.0 mm
01:55 AM 79.4°F26.3°C 53.0°F11.7°C 40% 1.0 mph S1.6 kmh S 5.0 mph8.0 kmh 29.67 in1004.7 mb 0.00 in0.0 mm 0.00 in0.0 mm 0.00 in0.0 mm
01:56 AM 79.4°F26.3°C 53.0°F11.7°C 40% 2.0 mph S3.2 kmh S 5.0 mph8.0 kmh 29.67 in1004.7 mb 0.00 in0.0 mm 0.00 in0.0 mm 0.00 in0.0 mm
02:00 AM 79.3°F26.3°C 53.6°F12.0°C 41% 2.0 mph S3.2 kmh S 5.0 mph8.0 kmh 29.67 in1004.7 mb 0.00 in0.0 mm 0.00 in0.0 mm 0.00 in0.0 mm
02:01 AM 79.3°F26.3°C 54.0°F12.2°C 41% 1.0 mph S1.6 kmh S 5.0 mph8.0 kmh 29.67 in1004.7 mb 0.00 in0.0 mm 0.00 in0.0 mm 0.00 in0.0 mm
02:05 AM 79.2°F26.2°C 53.5°F11.9°C 41% 1.0 mph S1.6 kmh S 3.0 mph4.8 kmh 29.67 in1004.7 mb 0.00 in0.0 mm 0.00 in0.0 mm 0.00 in0.0 mm
02:06 AM 79.2°F26.2°C 53.0°F11.7°C 41% Calm Calm 3.0 mph4.8 kmh 29.67 in1004.7 mb 0.00 in0.0 mm 0.00 in0.0 mm 0.00 in0.0 mm
02:10 AM 79.1°F26.2°C 53.4°F11.9°C 41% Calm Calm 2.0 mph3.2 kmh 29.67 in1004.7 mb 0.00 in0.0 mm 0.00 in0.0 mm 0.00 in0.0 mm
02:11 AM 79.0°F26.1°C 53.0°F11.7°C 41% Calm Calm -- 29.67 in1004.7 mb 0.00 in0.0 mm 0.00 in0.0 mm 0.00 in0.0 mm
02:15 AM 78.9°F26.1°C 53.2°F11.8°C 41% Calm Calm -- 29.67 in1004.7 mb 0.00 in0.0 mm 0.00 in0.0 mm 0.00 in0.0 mm
02:16 AM 78.9°F26.1°C 53.0°F11.7°C 41% Calm Calm -- 29.67 in1004.7 mb 0.00 in0.0 mm 0.00 in0.0 mm 0.00 in0.0 mm
02:20 AM 78.7°F25.9°C 53.7°F12.1°C 42% Calm Calm 2.0 mph3.2 kmh 29.67 in1004.7 mb 0.00 in0.0 mm 0.00 in0.0 mm 0.00 in0.0 mm
02:21 AM 78.7°F25.9°C 54.0°F12.2°C 42% 1.0 mph S1.6 kmh S 2.0 mph3.2 kmh 29.67 in1004.7 mb 0.00 in0.0 mm 0.00 in0.0 mm 0.00 in0.0 mm
02:25 AM 78.5°F25.8°C 53.5°F11.9°C 42% Calm Calm 2.0 mph3.2 kmh 29.67 in1004.7 mb 0.00 in0.0 mm 0.00 in0.0 mm 0.00 in0.0 mm
02:26 AM 78.5°F25.8°C 53.0°F11.7°C 42% Calm Calm 2.0 mph3.2 kmh 29.67 in1004.7 mb 0.00 in0.0 mm 0.00 in0.0 mm 0.00 in0.0 mm
02:30 AM 78.2°F25.7°C 53.2°F11.8°C 42% Calm Calm 3.0 mph4.8 kmh 29.67 in1004.7 mb 0.00 in0.0 mm 0.00 in0.0 mm 0.00 in0.0 mm
02:31 AM 78.1°F25.6°C 53.0°F11.7°C 42% 3.0 mph S4.8 kmh S 3.0 mph4.8 kmh 29.67 in1004.7 mb 0.00 in0.0 mm 0.00 in0.0 mm 0.00 in0.0 mm
02:35 AM 77.8°F25.4°C 52.9°F11.6°C 42% 1.0 mph SSE1.6 kmh SSE 4.0 mph6.4 kmh 29.67 in1004.7 mb 0.00 in0.0 mm 0.00 in0.0 mm 0.00 in0.0 mm
02:36 AM 77.8°F25.4°C 53.0°F11.7°C 42% 1.0 mph SSE1.6 kmh SSE 3.0 mph4.8 kmh 29.67 in1004.7 mb 0.00 in0.0 mm 0.00 in0.0 mm 0.00 in0.0 mm
02:40 AM 77.5°F25.3°C 52.6°F11.4°C 42% 2.0 mph SSE3.2 kmh SSE 4.0 mph6.4 kmh 29.67 in1004.7 mb 0.00 in0.0 mm 0.00 in0.0 mm 0.00 in0.0 mm
02:41 AM 77.5°F25.3°C 53.0°F11.7°C 42% Calm Calm 3.0 mph4.8 kmh 29.67 in1004.7 mb 0.00 in0.0 mm 0.00 in0.0 mm 0.00 in0.0 mm
02:45 AM 77.3°F25.2°C 52.4°F11.3°C 42% 1.0 mph SSE1.6 kmh SSE 3.0 mph4.8 kmh 29.67 in1004.7 mb 0.00 in0.0 mm 0.00 in0.0 mm 0.00 in0.0 mm
02:46 AM 77.3°F25.2°C 52.0°F11.1°C 42% 1.0 mph SSE1.6 kmh SSE 2.0 mph3.2 kmh 29.67 in1004.7 mb 0.00 in0.0 mm 0.00 in0.0 mm 0.00 in0.0 mm
02:50 AM 77.1°F25.1°C 52.9°F11.6°C 43% 1.0 mph SSE1.6 kmh SSE 3.0 mph4.8 kmh 29.67 in1004.7 mb 0.00 in0.0 mm 0.00 in0.0 mm 0.00 in0.0 mm
02:51 AM 77.1°F25.1°C 53.0°F11.7°C 43% 1.0 mph SSE1.6 kmh SSE 3.0 mph4.8 kmh 29.67 in1004.7 mb 0.00 in0.0 mm 0.00 in0.0 mm 0.00 in0.0 mm
02:55 AM 76.9°F24.9°C 52.7°F11.5°C 43% 1.0 mph SSE1.6 kmh SSE 3.0 mph4.8 kmh 29.67 in1004.7 mb 0.00 in0.0 mm 0.00 in0.0 mm 0.00 in0.0 mm
02:56 AM 76.9°F24.9°C 53.0°F11.7°C 43% 3.0 mph SSE4.8 kmh SSE 3.0 mph4.8 kmh 29.67 in1004.7 mb 0.00 in0.0 mm 0.00 in0.0 mm 0.00 in0.0 mm
03:00 AM 76.7°F24.8°C 52.5°F11.4°C 43% 1.0 mph SSE1.6 kmh SSE 4.0 mph6.4 kmh 29.67 in1004.7 mb 0.00 in0.0 mm 0.00 in0.0 mm 0.00 in0.0 mm
03:01 AM 76.7°F24.8°C 52.0°F11.1°C 43% 1.0 mph SSE1.6 kmh SSE 3.0 mph4.8 kmh 29.67 in1004.7 mb 0.00 in0.0 mm 0.00 in0.0 mm 0.00 in0.0 mm
03:05 AM 76.6°F24.8°C 52.4°F11.3°C 43% 2.0 mph SSE3.2 kmh SSE 4.0 mph6.4 kmh 29.67 in1004.7 mb 0.00 in0.0 mm 0.00 in0.0 mm 0.00 in0.0 mm
03:06 AM 76.6°F24.8°C 52.0°F11.1°C 43% 3.0 mph SSE4.8 kmh SSE 3.0 mph4.8 kmh 29.67 in1004.7 mb 0.00 in0.0 mm 0.00 in0.0 mm 0.00 in0.0 mm
03:10 AM 76.5°F24.7°C 52.3°F11.3°C 43% 1.0 mph SSE1.6 kmh SSE 4.0 mph6.4 kmh 29.67 in1004.7 mb 0.00 in0.0 mm 0.00 in0.0 mm 0.00 in0.0 mm
03:11 AM 76.6°F24.8°C 52.0°F11.1°C 43% Calm Calm 3.0 mph4.8 kmh 29.67 in1004.7 mb 0.00 in0.0 mm 0.00 in0.0 mm 0.00 in0.0 mm
03:15 AM 76.5°F24.7°C 52.3°F11.3°C 43% Calm Calm 3.0 mph4.8 kmh 29.67 in1004.7 mb 0.00 in0.0 mm 0.00 in0.0 mm 0.00 in0.0 mm
03:16 AM 76.5°F24.7°C 52.0°F11.1°C 43% Calm Calm 2.0 mph3.2 kmh 29.67 in1004.7 mb 0.00 in0.0 mm 0.00 in0.0 mm 0.00 in0.0 mm
03:20 AM 76.4°F24.7°C 52.9°F11.6°C 44% Calm Calm 1.0 mph1.6 kmh 29.67 in1004.7 mb 0.00 in0.0 mm 0.00 in0.0 mm 0.00 in0.0 mm
03:21 AM 76.4°F24.7°C 53.0°F11.7°C 44% Calm Calm 2.0 mph3.2 kmh 29.67 in1004.7 mb 0.00 in0.0 mm 0.00 in0.0 mm 0.00 in0.0 mm
03:25 AM 76.3°F24.6°C 52.8°F11.6°C 44% Calm Calm 1.0 mph1.6 kmh 29.67 in1004.7 mb 0.00 in0.0 mm 0.00 in0.0 mm 0.00 in0.0 mm
03:26 AM 76.3°F24.6°C 53.0°F11.7°C 44% 1.0 mph SSE1.6 kmh SSE 1.0 mph1.6 kmh 29.67 in1004.7 mb 0.00 in0.0 mm 0.00 in0.0 mm 0.00 in0.0 mm
03:30 AM 76.2°F24.6°C 53.3°F11.8°C 45% Calm Calm 3.0 mph4.8 kmh 29.67 in1004.7 mb 0.00 in0.0 mm 0.00 in0.0 mm 0.00 in0.0 mm
03:31 AM 76.2°F24.6°C 53.0°F11.7°C 45% Calm Calm 2.0 mph3.2 kmh 29.67 in1004.7 mb 0.00 in0.0 mm 0.00 in0.0 mm 0.00 in0.0 mm
03:35 AM 76.1°F24.5°C 53.2°F11.8°C 45% Calm Calm 3.0 mph4.8 kmh 29.67 in1004.7 mb 0.00 in0.0 mm 0.00 in0.0 mm 0.00 in0.0 mm
03:36 AM 76.1°F24.5°C 53.0°F11.7°C 45% Calm Calm 2.0 mph3.2 kmh 29.67 in1004.7 mb 0.00 in0.0 mm 0.00 in0.0 mm 0.00 in0.0 mm
03:40 AM 76.0°F24.4°C 53.1°F11.7°C 45% Calm Calm 1.0 mph1.6 kmh 29.68 in1005.1 mb 0.00 in0.0 mm 0.00 in0.0 mm 0.00 in0.0 mm
03:41 AM 76.0°F24.4°C 53.0°F11.7°C 45% Calm Calm 1.0 mph1.6 kmh 29.68 in1005.1 mb 0.00 in0.0 mm 0.00 in0.0 mm 0.00 in0.0 mm
03:45 AM 75.9°F24.4°C 53.0°F11.7°C 45% Calm Calm -- 29.68 in1005.1 mb 0.00 in0.0 mm 0.00 in0.0 mm 0.00 in0.0 mm
03:46 AM 75.9°F24.4°C 53.0°F11.7°C 45% Calm Calm -- 29.68 in1005.1 mb 0.00 in0.0 mm 0.00 in0.0 mm 0.00 in0.0 mm
03:50 AM 75.7°F24.3°C 52.8°F11.6°C 45% Calm Calm 1.0 mph1.6 kmh 29.68 in1005.1 mb 0.00 in0.0 mm 0.00 in0.0 mm 0.00 in0.0 mm
03:51 AM 75.6°F24.2°C 53.0°F11.7°C 45% Calm Calm 1.0 mph1.6 kmh 29.68 in1005.1 mb 0.00 in0.0 mm 0.00 in0.0 mm 0.00 in0.0 mm
03:55 AM 75.5°F24.2°C 53.3°F11.8°C 46% Calm Calm 1.0 mph1.6 kmh 29.68 in1005.1 mb 0.00 in0.0 mm 0.00 in0.0 mm 0.00 in0.0 mm
03:56 AM 75.5°F24.2°C 53.0°F11.7°C 46% Calm Calm 1.0 mph1.6 kmh 29.68 in1005.1 mb 0.00 in0.0 mm 0.00 in0.0 mm 0.00 in0.0 mm
04:00 AM 75.3°F24.1°C 53.7°F12.1°C 47% Calm Calm 1.0 mph1.6 kmh 29.68 in1005.1 mb 0.00 in0.0 mm 0.00 in0.0 mm 0.00 in0.0 mm
04:01 AM 75.3°F24.1°C 54.0°F12.2°C 47% 1.0 mph SSE1.6 kmh SSE 1.0 mph1.6 kmh 29.68 in1005.1 mb 0.00 in0.0 mm 0.00 in0.0 mm 0.00 in0.0 mm
04:05 AM 75.1°F23.9°C 53.5°F11.9°C 47% Calm Calm 1.0 mph1.6 kmh 29.68 in1005.1 mb 0.00 in0.0 mm 0.00 in0.0 mm 0.00 in0.0 mm
04:06 AM 75.1°F23.9°C 53.0°F11.7°C 47% Calm Calm 1.0 mph1.6 kmh 29.68 in1005.1 mb 0.00 in0.0 mm 0.00 in0.0 mm 0.00 in0.0 mm
04:10 AM 75.0°F23.9°C 53.4°F11.9°C 47% Calm Calm 1.0 mph1.6 kmh 29.68 in1005.1 mb 0.00 in0.0 mm 0.00 in0.0 mm 0.00 in0.0 mm
04:11 AM 74.9°F23.8°C 53.0°F11.7°C 47% Calm Calm -- 29.68 in1005.1 mb 0.00 in0.0 mm 0.00 in0.0 mm 0.00 in0.0 mm
04:15 AM 74.8°F23.8°C 53.2°F11.8°C 47% Calm Calm 3.0 mph4.8 kmh 29.68 in1005.1 mb 0.00 in0.0 mm 0.00 in0.0 mm 0.00 in0.0 mm
04:16 AM 74.8°F23.8°C 53.0°F11.7°C 47% 1.0 mph SSE1.6 kmh SSE 2.0 mph3.2 kmh 29.68 in1005.1 mb 0.00 in0.0 mm 0.00 in0.0 mm 0.00 in0.0 mm
04:20 AM 74.7°F23.7°C 53.7°F12.1°C 48% Calm Calm 3.0 mph4.8 kmh 29.68 in1005.1 mb 0.00 in0.0 mm 0.00 in0.0 mm 0.00 in0.0 mm
04:21 AM 74.7°F23.7°C 54.0°F12.2°C 48% 1.0 mph SSE1.6 kmh SSE 2.0 mph3.2 kmh 29.68 in1005.1 mb 0.00 in0.0 mm 0.00 in0.0 mm 0.00 in0.0 mm
04:25 AM 74.6°F23.7°C 53.6°F12.0°C 48% 1.0 mph SSE1.6 kmh SSE 3.0 mph4.8 kmh 29.68 in1005.1 mb 0.00 in0.0 mm 0.00 in0.0 mm 0.00 in0.0 mm
04:26 AM 74.6°F23.7°C 54.0°F12.2°C 48% Calm Calm 2.0 mph3.2 kmh 29.68 in1005.1 mb 0.00 in0.0 mm 0.00 in0.0 mm 0.00 in0.0 mm
04:30 AM 74.6°F23.7°C 53.6°F12.0°C 48% 1.0 mph SSE1.6 kmh SSE 4.0 mph6.4 kmh 29.68 in1005.1 mb 0.00 in0.0 mm 0.00 in0.0 mm 0.00 in0.0 mm
04:31 AM 74.6°F23.7°C 54.0°F12.2°C 48% 1.0 mph SSE1.6 kmh SSE 3.0 mph4.8 kmh 29.68 in1005.1 mb 0.00 in0.0 mm 0.00 in0.0 mm 0.00 in0.0 mm
04:35 AM 74.6°F23.7°C 53.6°F12.0°C 48% 1.0 mph SSE1.6 kmh SSE 4.0 mph6.4 kmh 29.68 in1005.1 mb 0.00 in0.0 mm 0.00 in0.0 mm 0.00 in0.0 mm
04:36 AM 74.6°F23.7°C 54.0°F12.2°C 48% Calm Calm 3.0 mph4.8 kmh 29.68 in1005.1 mb 0.00 in0.0 mm 0.00 in0.0 mm 0.00 in0.0 mm
04:40 AM 74.7°F23.7°C 53.7°F12.1°C 48% 1.0 mph SSE1.6 kmh SSE 3.0 mph4.8 kmh 29.69 in1005.4 mb 0.00 in0.0 mm 0.00 in0.0 mm 0.00 in0.0 mm
04:41 AM 74.6°F23.7°C 54.0°F12.2°C 48% Calm Calm 2.0 mph3.2 kmh 29.68 in1005.1 mb 0.00 in0.0 mm 0.00 in0.0 mm 0.00 in0.0 mm
04:45 AM 74.5°F23.6°C 52.9°F11.6°C 47% 2.0 mph SSE3.2 kmh SSE 4.0 mph6.4 kmh 29.68 in1005.1 mb 0.00 in0.0 mm 0.00 in0.0 mm 0.00 in0.0 mm
04:46 AM 74.5°F23.6°C 53.0°F11.7°C 47% 1.0 mph SSE1.6 kmh SSE 3.0 mph4.8 kmh 29.68 in1005.1 mb 0.00 in0.0 mm 0.00 in0.0 mm 0.00 in0.0 mm
04:50 AM 74.4°F23.6°C 52.9°F11.6°C 47% 1.0 mph SSE1.6 kmh SSE 4.0 mph6.4 kmh 29.68 in1005.1 mb 0.00 in0.0 mm 0.00 in0.0 mm 0.00 in0.0 mm
04:51 AM 74.3°F23.5°C 53.0°F11.7°C 48% 1.0 mph SSE1.6 kmh SSE 3.0 mph4.8 kmh 29.69 in1005.4 mb 0.00 in0.0 mm 0.00 in0.0 mm 0.00 in0.0 mm
04:55 AM 74.2°F23.4°C 53.2°F11.8°C 48% 1.0 mph SSE1.6 kmh SSE 3.0 mph4.8 kmh 29.69 in1005.4 mb 0.00 in0.0 mm 0.00 in0.0 mm 0.00 in0.0 mm
04:56 AM 74.2°F23.4°C 53.0°F11.7°C 48% Calm Calm 2.0 mph3.2 kmh 29.69 in1005.4 mb 0.00 in0.0 mm 0.00 in0.0 mm 0.00 in0.0 mm
05:00 AM 74.1°F23.4°C 53.2°F11.8°C 48% Calm Calm 3.0 mph4.8 kmh 29.69 in1005.4 mb 0.00 in0.0 mm 0.00 in0.0 mm 0.00 in0.0 mm
05:01 AM 74.1°F23.4°C 53.0°F11.7°C 48% Calm Calm 2.0 mph3.2 kmh 29.69 in1005.4 mb 0.00 in0.0 mm 0.00 in0.0 mm 0.00 in0.0 mm
05:05 AM 74.0°F23.3°C 53.6°F12.0°C 49% 1.0 mph SSE1.6 kmh SSE 4.0 mph6.4 kmh 29.69 in1005.4 mb 0.00 in0.0 mm 0.00 in0.0 mm 0.00 in0.0 mm
05:06 AM 74.0°F23.3°C 54.0°F12.2°C 49% 2.0 mph SE3.2 kmh SE 4.0 mph6.4 kmh 29.69 in1005.4 mb 0.00 in0.0 mm 0.00 in0.0 mm 0.00 in0.0 mm
05:10 AM 74.1°F23.4°C 53.7°F12.1°C 49% 2.0 mph SE3.2 kmh SE 6.0 mph9.7 kmh 29.69 in1005.4 mb 0.00 in0.0 mm 0.00 in0.0 mm 0.00 in0.0 mm
05:11 AM 74.1°F23.4°C 54.0°F12.2°C 49% 4.0 mph SE6.4 kmh SE 7.0 mph11.3 kmh 29.69 in1005.4 mb 0.00 in0.0 mm 0.00 in0.0 mm 0.00 in0.0 mm
05:15 AM 74.3°F23.5°C 53.9°F12.2°C 49% 3.0 mph SE4.8 kmh SE 7.0 mph11.3 kmh 29.69 in1005.4 mb 0.00 in0.0 mm 0.00 in0.0 mm 0.00 in0.0 mm
05:16 AM 74.3°F23.5°C 54.0°F12.2°C 49% 3.0 mph SE4.8 kmh SE 7.0 mph11.3 kmh 29.69 in1005.4 mb 0.00 in0.0 mm 0.00 in0.0 mm 0.00 in0.0 mm
05:20 AM 74.5°F23.6°C 54.1°F12.3°C 49% 2.0 mph SSE3.2 kmh SSE 7.0 mph11.3 kmh 29.69 in1005.4 mb 0.00 in0.0 mm 0.00 in0.0 mm 0.00 in0.0 mm
05:21 AM 74.5°F23.6°C 54.0°F12.2°C 49% 2.0 mph SSE3.2 kmh SSE 7.0 mph11.3 kmh 29.69 in1005.4 mb 0.00 in0.0 mm 0.00 in0.0 mm 0.00 in0.0 mm
05:25 AM 74.7°F23.7°C 54.3°F12.4°C 49% 2.0 mph SSE3.2 kmh SSE 5.0 mph8.0 kmh 29.70 in1005.8 mb 0.00 in0.0 mm 0.00 in0.0 mm 0.00 in0.0 mm
05:26 AM 74.7°F23.7°C 54.0°F12.2°C 49% 3.0 mph SSE4.8 kmh SSE 4.0 mph6.4 kmh 29.70 in1005.8 mb 0.00 in0.0 mm 0.00 in0.0 mm 0.00 in0.0 mm
05:30 AM 74.7°F23.7°C 53.7°F12.1°C 48% 1.0 mph SSE1.6 kmh SSE 4.0 mph6.4 kmh 29.70 in1005.8 mb 0.00 in0.0 mm 0.00 in0.0 mm 0.00 in0.0 mm
05:31 AM 74.7°F23.7°C 54.0°F12.2°C 48% Calm Calm 2.0 mph3.2 kmh 29.70 in1005.8 mb 0.00 in0.0 mm 0.00 in0.0 mm 0.00 in0.0 mm
05:35 AM 74.7°F23.7°C 53.7°F12.1°C 48% 1.0 mph SSE1.6 kmh SSE 3.0 mph4.8 kmh 29.70 in1005.8 mb 0.00 in0.0 mm 0.00 in0.0 mm 0.00 in0.0 mm
05:40 AM 74.6°F23.7°C 54.2°F12.3°C 49% 1.0 mph SSE1.6 kmh SSE 4.0 mph6.4 kmh 29.70 in1005.8 mb 0.00 in0.0 mm 0.00 in0.0 mm 0.00 in0.0 mm
05:45 AM 74.5°F23.6°C 54.1°F12.3°C 49% 1.0 mph SSE1.6 kmh SSE 4.0 mph6.4 kmh 29.70 in1005.8 mb 0.00 in0.0 mm 0.00 in0.0 mm 0.00 in0.0 mm
05:46 AM 74.5°F23.6°C 54.0°F12.2°C 49% 1.0 mph SSE1.6 kmh SSE 3.0 mph4.8 kmh 29.70 in1005.8 mb 0.00 in0.0 mm 0.00 in0.0 mm 0.00 in0.0 mm
05:50 AM 74.4°F23.6°C 54.0°F12.2°C 49% 1.0 mph SSE1.6 kmh SSE 4.0 mph6.4 kmh 29.70 in1005.8 mb 0.00 in0.0 mm 0.00 in0.0 mm 0.00 in0.0 mm
05:55 AM 74.2°F23.4°C 53.8°F12.1°C 49% 1.0 mph SSE1.6 kmh SSE 2.0 mph3.2 kmh 29.70 in1005.8 mb 0.00 in0.0 mm 0.00 in0.0 mm 0.00 in0.0 mm
06:00 AM 74.1°F23.4°C 53.7°F12.1°C 49% Calm Calm 2.0 mph3.2 kmh 29.70 in1005.8 mb 0.00 in0.0 mm 0.00 in0.0 mm 0.00 in0.0 mm
06:01 AM 74.0°F23.3°C 54.0°F12.2°C 49% 1.0 mph SSE1.6 kmh SSE 2.0 mph3.2 kmh 29.70 in1005.8 mb 0.00 in0.0 mm 0.00 in0.0 mm 0.00 in0.0 mm
06:05 AM 73.8°F23.2°C 53.4°F11.9°C 49% Calm Calm 2.0 mph3.2 kmh 29.70 in1005.8 mb 0.00 in0.0 mm 0.00 in0.0 mm 0.00 in0.0 mm
06:06 AM 73.8°F23.2°C 53.0°F11.7°C 49% Calm Calm 2.0 mph3.2 kmh 29.70 in1005.8 mb 0.00 in0.0 mm 0.00 in0.0 mm 0.00 in0.0 mm
06:10 AM 73.6°F23.1°C 53.3°F11.8°C 49% 1.0 mph SSE1.6 kmh SSE 2.0 mph3.2 kmh 29.71 in1006.1 mb 0.00 in0.0 mm 0.00 in0.0 mm 0.00 in0.0 mm
06:15 AM 73.3°F22.9°C 53.0°F11.7°C 49% 1.0 mph SSE1.6 kmh SSE 4.0 mph6.4 kmh 29.71 in1006.1 mb 0.00 in0.0 mm 0.00 in0.0 mm 0.00 in0.0 mm
06:16 AM 73.3°F22.9°C 53.0°F11.7°C 49% 1.0 mph SSE1.6 kmh SSE 3.0 mph4.8 kmh 29.71 in1006.1 mb 0.00 in0.0 mm 0.00 in0.0 mm 0.00 in0.0 mm
06:20 AM 73.1°F22.8°C 52.8°F11.6°C 49% 2.0 mph SE3.2 kmh SE 4.0 mph6.4 kmh 29.71 in1006.1 mb 0.00 in0.0 mm 0.00 in0.0 mm 0.00 in0.0 mm
06:25 AM 73.0°F22.8°C 52.7°F11.5°C 49% 2.0 mph ESE3.2 kmh ESE 4.0 mph6.4 kmh 29.71 in1006.1 mb 0.00 in0.0 mm 0.00 in0.0 mm 0.00 in0.0 mm
06:26 AM 73.0°F22.8°C 53.0°F11.7°C 49% 1.0 mph E1.6 kmh E 4.0 mph6.4 kmh 29.71 in1006.1 mb 0.00 in0.0 mm 0.00 in0.0 mm 0.00 in0.0 mm
06:30 AM 73.0°F22.8°C 52.7°F11.5°C 49% 2.0 mph E3.2 kmh E 4.0 mph6.4 kmh 29.71 in1006.1 mb 0.00 in0.0 mm 0.00 in0.0 mm 0.00 in0.0 mm
06:31 AM 73.0°F22.8°C 53.0°F11.7°C 49% 1.0 mph ESE1.6 kmh ESE 4.0 mph6.4 kmh 29.71 in1006.1 mb 0.00 in0.0 mm 0.00 in0.0 mm 0.00 in0.0 mm
06:35 AM 73.1°F22.8°C 52.8°F11.6°C 49% 1.0 mph ESE1.6 kmh ESE 4.0 mph6.4 kmh 29.71 in1006.1 mb 0.00 in0.0 mm 0.00 in0.0 mm 0.00 in0.0 mm
06:36 AM 73.1°F22.8°C 53.0°F11.7°C 49% 1.0 mph SE1.6 kmh SE 4.0 mph6.4 kmh 29.71 in1006.1 mb 0.00 in0.0 mm 0.00 in0.0 mm 0.00 in0.0 mm
06:40 AM 73.3°F22.9°C 53.0°F11.7°C 49% 1.0 mph ESE1.6 kmh ESE 3.0 mph4.8 kmh 29.71 in1006.1 mb 0.00 in0.0 mm 0.00 in0.0 mm 0.00 in0.0 mm
06:41 AM 73.3°F22.9°C 53.0°F11.7°C 49% 1.0 mph SE1.6 kmh SE 3.0 mph4.8 kmh 29.71 in1006.1 mb 0.00 in0.0 mm 0.00 in0.0 mm 0.00 in0.0 mm
06:45 AM 73.5°F23.1°C 53.2°F11.8°C 49% 1.0 mph SE1.6 kmh SE 2.0 mph3.2 kmh 29.71 in1006.1 mb 0.00 in0.0 mm 0.00 in0.0 mm 0.00 in0.0 mm
06:46 AM 73.5°F23.1°C 53.0°F11.7°C 49% 1.0 mph SE1.6 kmh SE 2.0 mph3.2 kmh 29.71 in1006.1 mb 0.00 in0.0 mm 0.00 in0.0 mm 0.00 in0.0 mm
06:50 AM 73.8°F23.2°C 53.4°F11.9°C 49% 1.0 mph SE1.6 kmh SE 2.0 mph3.2 kmh 29.71 in1006.1 mb 0.00 in0.0 mm 0.00 in0.0 mm 0.00 in0.0 mm
06:51 AM 73.7°F23.2°C 53.0°F11.7°C 49% 1.0 mph SE1.6 kmh SE 2.0 mph3.2 kmh 29.71 in1006.1 mb 0.00 in0.0 mm 0.00 in0.0 mm 0.00 in0.0 mm
06:55 AM 74.1°F23.4°C 53.2°F11.8°C 48% 1.0 mph SE1.6 kmh SE 2.0 mph3.2 kmh 29.71 in1006.1 mb 0.00 in0.0 mm 0.00 in0.0 mm 0.00 in0.0 mm
06:56 AM 74.1°F23.4°C 53.0°F11.7°C 48% Calm Calm 2.0 mph3.2 kmh 29.71 in1006.1 mb 0.00 in0.0 mm 0.00 in0.0 mm 0.00 in0.0 mm
07:00 AM 74.5°F23.6°C 53.5°F11.9°C 48% 1.0 mph SE1.6 kmh SE 3.0 mph4.8 kmh 29.72 in1006.4 mb 0.00 in0.0 mm 0.00 in0.0 mm 0.00 in0.0 mm
07:01 AM 74.6°F23.7°C 54.0°F12.2°C 48% Calm Calm 3.0 mph4.8 kmh 29.72 in1006.4 mb 0.00 in0.0 mm 0.00 in0.0 mm 0.00 in0.0 mm
07:05 AM 74.9°F23.8°C 53.3°F11.8°C 47% 1.0 mph SE1.6 kmh SE 3.0 mph4.8 kmh 29.72 in1006.4 mb 0.00 in0.0 mm 0.00 in0.0 mm 0.00 in0.0 mm
07:10 AM 75.4°F24.1°C 53.8°F12.1°C 47% 1.0 mph SE1.6 kmh SE 2.0 mph3.2 kmh 29.72 in1006.4 mb 0.00 in0.0 mm 0.00 in0.0 mm 0.00 in0.0 mm
07:15 AM 75.9°F24.4°C 53.6°F12.0°C 46% Calm Calm 2.0 mph3.2 kmh 29.72 in1006.4 mb 0.00 in0.0 mm 0.00 in0.0 mm 0.00 in0.0 mm
07:16 AM 75.9°F24.4°C 54.0°F12.2°C 46% 1.0 mph SE1.6 kmh SE 2.0 mph3.2 kmh 29.72 in1006.4 mb 0.00 in0.0 mm 0.00 in0.0 mm 0.00 in0.0 mm
07:20 AM 76.4°F24.7°C 53.5°F11.9°C 45% 1.0 mph SE1.6 kmh SE 3.0 mph4.8 kmh 29.72 in1006.4 mb 0.00 in0.0 mm 0.00 in0.0 mm 0.00 in0.0 mm
07:25 AM 77.1°F25.1°C 53.5°F11.9°C 44% 1.0 mph SE1.6 kmh SE 3.0 mph4.8 kmh 29.72 in1006.4 mb 0.00 in0.0 mm 0.00 in0.0 mm 0.00 in0.0 mm
07:26 AM 77.1°F25.1°C 53.0°F11.7°C 44% 2.0 mph SE3.2 kmh SE 3.0 mph4.8 kmh 29.72 in1006.4 mb 0.00 in0.0 mm 0.00 in0.0 mm 0.00 in0.0 mm
07:30 AM 77.8°F25.4°C 53.5°F11.9°C 43% 1.0 mph SE1.6 kmh SE 2.0 mph3.2 kmh 29.72 in1006.4 mb 0.00 in0.0 mm 0.00 in0.0 mm 0.00 in0.0 mm
07:31 AM 77.9°F25.5°C 54.0°F12.2°C 43% 2.0 mph SE3.2 kmh SE 2.0 mph3.2 kmh 29.72 in1006.4 mb 0.00 in0.0 mm 0.00 in0.0 mm 0.00 in0.0 mm
07:35 AM 78.4°F25.8°C 54.0°F12.2°C 43% 2.0 mph SE3.2 kmh SE 3.0 mph4.8 kmh 29.72 in1006.4 mb 0.00 in0.0 mm 0.00 in0.0 mm 0.00 in0.0 mm
07:40 AM 78.9°F26.1°C 53.9°F12.2°C 42% 2.0 mph SE3.2 kmh SE 4.0 mph6.4 kmh 29.72 in1006.4 mb 0.00 in0.0 mm 0.00 in0.0 mm 0.00 in0.0 mm
07:41 AM 78.8°F26.0°C 54.0°F12.2°C 42% 1.0 mph S1.6 kmh S 4.0 mph6.4 kmh 29.72 in1006.4 mb 0.00 in0.0 mm 0.00 in0.0 mm 0.00 in0.0 mm
07:45 AM 79.5°F26.4°C 53.7°F12.1°C 41% 2.0 mph SSE3.2 kmh SSE 4.0 mph6.4 kmh 29.72 in1006.4 mb 0.00 in0.0 mm 0.00 in0.0 mm 0.00 in0.0 mm
07:46 AM 79.5°F26.4°C 54.0°F12.2°C 41% 1.0 mph S1.6 kmh S 4.0 mph6.4 kmh 29.72 in1006.4 mb 0.00 in0.0 mm 0.00 in0.0 mm 0.00 in0.0 mm
07:50 AM 80.0°F26.7°C 54.2°F12.3°C 41% 1.0 mph S1.6 kmh S 4.0 mph6.4 kmh 29.72 in1006.4 mb 0.00 in0.0 mm 0.00 in0.0 mm 0.00 in0.0 mm
07:51 AM 79.9°F26.6°C 55.0°F12.8°C 42% 2.0 mph S3.2 kmh S 4.0 mph6.4 kmh 29.72 in1006.4 mb 0.00 in0.0 mm 0.00 in0.0 mm 0.00 in0.0 mm
07:55 AM 80.6°F27.0°C 54.7°F12.6°C 41% 2.0 mph SSE3.2 kmh SSE 4.0 mph6.4 kmh 29.72 in1006.4 mb 0.00 in0.0 mm 0.00 in0.0 mm 0.00 in0.0 mm
07:56 AM 80.6°F27.0°C 55.0°F12.8°C 41% 3.0 mph SSE4.8 kmh SSE 4.0 mph6.4 kmh 29.72 in1006.4 mb 0.00 in0.0 mm 0.00 in0.0 mm 0.00 in0.0 mm
08:00 AM 81.0°F27.2°C 54.4°F12.4°C 40% 2.0 mph SSE3.2 kmh SSE 4.0 mph6.4 kmh 29.72 in1006.4 mb 0.00 in0.0 mm 0.00 in0.0 mm 0.00 in0.0 mm
08:01 AM 81.1°F27.3°C 55.0°F12.8°C 40% 1.0 mph SSE1.6 kmh SSE 3.0 mph4.8 kmh 29.72 in1006.4 mb 0.00 in0.0 mm 0.00 in0.0 mm 0.00 in0.0 mm
08:05 AM 81.5°F27.5°C 54.8°F12.7°C 40% 2.0 mph SSE3.2 kmh SSE 4.0 mph6.4 kmh 29.72 in1006.4 mb 0.00 in0.0 mm 0.00 in0.0 mm 0.00 in0.0 mm
08:10 AM 82.1°F27.8°C 54.7°F12.6°C 39% 1.0 mph SSE1.6 kmh SSE 4.0 mph6.4 kmh 29.72 in1006.4 mb 0.00 in0.0 mm 0.00 in0.0 mm 0.00 in0.0 mm
08:11 AM 82.0°F27.8°C 55.0°F12.8°C 39% 1.0 mph SSE1.6 kmh SSE 3.0 mph4.8 kmh 29.72 in1006.4 mb 0.00 in0.0 mm 0.00 in0.0 mm 0.00 in0.0 mm
08:15 AM 82.8°F28.2°C 54.6°F12.6°C 38% 1.0 mph SSE1.6 kmh SSE 4.0 mph6.4 kmh 29.72 in1006.4 mb 0.00 in0.0 mm 0.00 in0.0 mm 0.00 in0.0 mm
08:16 AM 82.8°F28.2°C 55.0°F12.8°C 38% 2.0 mph SE3.2 kmh SE 3.0 mph4.8 kmh 29.72 in1006.4 mb 0.00 in0.0 mm 0.00 in0.0 mm 0.00 in0.0 mm
08:20 AM 83.5°F28.6°C 54.5°F12.5°C 37% 2.0 mph SE3.2 kmh SE 4.0 mph6.4 kmh 29.73 in1006.8 mb 0.00 in0.0 mm 0.00 in0.0 mm 0.00 in0.0 mm
08:21 AM 83.4°F28.6°C 54.0°F12.2°C 37% 2.0 mph SE3.2 kmh SE 3.0 mph4.8 kmh 29.72 in1006.4 mb 0.00 in0.0 mm 0.00 in0.0 mm 0.00 in0.0 mm
08:25 AM 84.2°F29.0°C 54.4°F12.4°C 36% 2.0 mph SE3.2 kmh SE 4.0 mph6.4 kmh 29.72 in1006.4 mb 0.00 in0.0 mm 0.00 in0.0 mm 0.00 in0.0 mm
08:26 AM 84.2°F29.0°C 54.0°F12.2°C 36% 2.0 mph ESE3.2 kmh ESE 4.0 mph6.4 kmh 29.72 in1006.4 mb 0.00 in0.0 mm 0.00 in0.0 mm 0.00 in0.0 mm
08:30 AM 84.8°F29.3°C 54.1°F12.3°C 35% 2.0 mph ESE3.2 kmh ESE 4.0 mph6.4 kmh 29.72 in1006.4 mb 0.00 in0.0 mm 0.00 in0.0 mm 0.00 in0.0 mm
08:31 AM 84.9°F29.4°C 54.0°F12.2°C 35% 1.0 mph SE1.6 kmh SE 4.0 mph6.4 kmh 29.72 in1006.4 mb 0.00 in0.0 mm 0.00 in0.0 mm 0.00 in0.0 mm
08:35 AM 85.5°F29.7°C 54.7°F12.6°C 35% 1.0 mph ESE1.6 kmh ESE 3.0 mph4.8 kmh 29.72 in1006.4 mb 0.00 in0.0 mm 0.00 in0.0 mm 0.00 in0.0 mm
08:40 AM 86.2°F30.1°C 54.5°F12.5°C 34% 2.0 mph SE3.2 kmh SE 3.0 mph4.8 kmh 29.72 in1006.4 mb 0.00 in0.0 mm 0.00 in0.0 mm 0.00 in0.0 mm
08:45 AM 86.9°F30.5°C 54.3°F12.4°C 33% 2.0 mph SE3.2 kmh SE 5.0 mph8.0 kmh 29.72 in1006.4 mb 0.00 in0.0 mm 0.00 in0.0 mm 0.00 in0.0 mm
08:46 AM 86.9°F30.5°C 55.0°F12.8°C 33% 3.0 mph S4.8 kmh S 6.0 mph9.7 kmh 29.72 in1006.4 mb 0.00 in0.0 mm 0.00 in0.0 mm 0.00 in0.0 mm
08:50 AM 87.6°F30.9°C 54.1°F12.3°C 32% 2.0 mph SSE3.2 kmh SSE 5.0 mph8.0 kmh 29.72 in1006.4 mb 0.00 in0.0 mm 0.00 in0.0 mm 0.00 in0.0 mm
08:55 AM 88.1°F31.2°C 54.5°F12.5°C 32% 2.0 mph SSE3.2 kmh SSE 5.0 mph8.0 kmh 29.72 in1006.4 mb 0.00 in0.0 mm 0.00 in0.0 mm 0.00 in0.0 mm
09:00 AM 88.5°F31.4°C 54.0°F12.2°C 31% 2.0 mph SE3.2 kmh SE 5.0 mph8.0 kmh 29.72 in1006.4 mb 0.00 in0.0 mm 0.00 in0.0 mm 0.00 in0.0 mm
09:01 AM 88.6°F31.4°C 54.0°F12.2°C 31% 2.0 mph SE3.2 kmh SE 3.0 mph4.8 kmh 29.72 in1006.4 mb 0.00 in0.0 mm 0.00 in0.0 mm 0.00 in0.0 mm
09:05 AM 89.2°F31.8°C 54.6°F12.6°C 31% 2.0 mph SE3.2 kmh SE 4.0 mph6.4 kmh 29.72 in1006.4 mb 0.00 in0.0 mm 0.00 in0.0 mm 0.00 in0.0 mm
09:10 AM 89.8°F32.1°C 54.2°F12.3°C 30% 2.0 mph SE3.2 kmh SE 5.0 mph8.0 kmh 29.72 in1006.4 mb 0.00 in0.0 mm 0.00 in0.0 mm 0.00 in0.0 mm
09:15 AM 90.3°F32.4°C 54.7°F12.6°C 30% 2.0 mph SE3.2 kmh SE 5.0 mph8.0 kmh 29.72 in1006.4 mb 0.00 in0.0 mm 0.00 in0.0 mm 0.00 in0.0 mm
09:16 AM 90.3°F32.4°C 55.0°F12.8°C 30% 2.0 mph ESE3.2 kmh ESE 4.0 mph6.4 kmh 29.72 in1006.4 mb 0.00 in0.0 mm 0.00 in0.0 mm 0.00 in0.0 mm
09:20 AM 90.9°F32.7°C 54.2°F12.3°C 29% 2.0 mph SE3.2 kmh SE 5.0 mph8.0 kmh 29.72 in1006.4 mb 0.00 in0.0 mm 0.00 in0.0 mm 0.00 in0.0 mm
09:25 AM 91.7°F33.2°C 54.0°F12.2°C 28% 2.0 mph SSE3.2 kmh SSE 6.0 mph9.7 kmh 29.72 in1006.4 mb 0.00 in0.0 mm 0.00 in0.0 mm 0.00 in0.0 mm
09:26 AM 91.7°F33.2°C 54.0°F12.2°C 28% 3.0 mph SSW4.8 kmh SSW 6.0 mph9.7 kmh 29.72 in1006.4 mb 0.00 in0.0 mm 0.00 in0.0 mm 0.00 in0.0 mm
09:30 AM 92.1°F33.4°C 52.3°F11.3°C 26% 2.0 mph S3.2 kmh S 6.0 mph9.7 kmh 29.72 in1006.4 mb 0.00 in0.0 mm 0.00 in0.0 mm 0.00 in0.0 mm
09:31 AM 92.2°F33.4°C 53.0°F11.7°C 26% 3.0 mph SSW4.8 kmh SSW 6.0 mph9.7 kmh 29.72 in1006.4 mb 0.00 in0.0 mm 0.00 in0.0 mm 0.00 in0.0 mm
09:35 AM 92.5°F33.6°C 52.6°F11.4°C 26% 2.0 mph SSW3.2 kmh SSW 5.0 mph8.0 kmh 29.72 in1006.4 mb 0.00 in0.0 mm 0.00 in0.0 mm 0.00 in0.0 mm
09:40 AM 93.1°F33.9°C 52.1°F11.2°C 25% 2.0 mph SSW3.2 kmh SSW 6.0 mph9.7 kmh 29.71 in1006.1 mb 0.00 in0.0 mm 0.00 in0.0 mm 0.00 in0.0 mm
09:45 AM 93.5°F34.2°C 51.3°F10.7°C 24% 2.0 mph SSW3.2 kmh SSW 6.0 mph9.7 kmh 29.71 in1006.1 mb 0.00 in0.0 mm 0.00 in0.0 mm 0.00 in0.0 mm
09:46 AM 93.5°F34.2°C 52.0°F11.1°C 24% 3.0 mph SW4.8 kmh SW 6.0 mph9.7 kmh 29.71 in1006.1 mb 0.00 in0.0 mm 0.00 in0.0 mm 0.00 in0.0 mm
09:50 AM 92.8°F33.8°C 49.6°F9.8°C 23% 2.0 mph SW3.2 kmh SW 5.0 mph8.0 kmh 29.71 in1006.1 mb 0.00 in0.0 mm 0.00 in0.0 mm 0.00 in0.0 mm
09:55 AM 92.7°F33.7°C 50.6°F10.3°C 24% 2.0 mph WSW3.2 kmh WSW 5.0 mph8.0 kmh 29.71 in1006.1 mb 0.00 in0.0 mm 0.00 in0.0 mm 0.00 in0.0 mm
10:00 AM 92.6°F33.7°C 50.5°F10.3°C 24% 2.0 mph NW3.2 kmh NW 6.0 mph9.7 kmh 29.71 in1006.1 mb 0.00 in0.0 mm 0.00 in0.0 mm 0.00 in0.0 mm
10:01 AM 92.5°F33.6°C 51.0°F10.6°C 24% 4.0 mph N6.4 kmh N 6.0 mph9.7 kmh 29.71 in1006.1 mb 0.00 in0.0 mm 0.00 in0.0 mm 0.00 in0.0 mm
10:05 AM 92.2°F33.4°C 51.3°F10.7°C 25% 3.0 mph N4.8 kmh N 7.0 mph11.3 kmh 29.71 in1006.1 mb 0.00 in0.0 mm 0.00 in0.0 mm 0.00 in0.0 mm
10:06 AM 92.2°F33.4°C 52.0°F11.1°C 25% 3.0 mph N4.8 kmh N 6.0 mph9.7 kmh 29.71 in1006.1 mb 0.00 in0.0 mm 0.00 in0.0 mm 0.00 in0.0 mm
10:10 AM 92.3°F33.5°C 50.3°F10.2°C 24% 2.0 mph NNE3.2 kmh NNE 7.0 mph11.3 kmh 29.71 in1006.1 mb 0.00 in0.0 mm 0.00 in0.0 mm 0.00 in0.0 mm
10:11 AM 92.3°F33.5°C 52.0°F11.1°C 25% 3.0 mph NE4.8 kmh NE 6.0 mph9.7 kmh 29.71 in1006.1 mb 0.00 in0.0 mm 0.00 in0.0 mm 0.00 in0.0 mm
10:15 AM 93.0°F33.9°C 50.9°F10.5°C 24% 2.0 mph NE3.2 kmh NE 5.0 mph8.0 kmh 29.71 in1006.1 mb 0.00 in0.0 mm 0.00 in0.0 mm 0.00 in0.0 mm
10:16 AM 93.0°F33.9°C 51.0°F10.6°C 24% 3.0 mph N4.8 kmh N 5.0 mph8.0 kmh 29.71 in1006.1 mb 0.00 in0.0 mm 0.00 in0.0 mm 0.00 in0.0 mm
10:20 AM 93.1°F33.9°C 51.0°F10.6°C 24% 2.0 mph N3.2 kmh N 5.0 mph8.0 kmh 29.71 in1006.1 mb 0.00 in0.0 mm 0.00 in0.0 mm 0.00 in0.0 mm
10:21 AM 93.1°F33.9°C 51.0°F10.6°C 24% 2.0 mph NW3.2 kmh NW 5.0 mph8.0 kmh 29.71 in1006.1 mb 0.00 in0.0 mm 0.00 in0.0 mm 0.00 in0.0 mm
10:25 AM 93.4°F34.1°C 50.1°F10.1°C 23% 2.0 mph NW3.2 kmh NW 5.0 mph8.0 kmh 29.71 in1006.1 mb 0.00 in0.0 mm 0.00 in0.0 mm 0.00 in0.0 mm
10:26 AM 93.4°F34.1°C 50.0°F10.0°C 23% 3.0 mph NW4.8 kmh NW 5.0 mph8.0 kmh 29.71 in1006.1 mb 0.00 in0.0 mm 0.00 in0.0 mm 0.00 in0.0 mm
10:30 AM 94.1°F34.5°C 50.6°F10.3°C 23% 2.0 mph NW3.2 kmh NW 5.0 mph8.0 kmh 29.71 in1006.1 mb 0.00 in0.0 mm 0.00 in0.0 mm 0.00 in0.0 mm
10:31 AM 94.1°F34.5°C 50.0°F10.0°C 22% 1.0 mph NNW1.6 kmh NNW 5.0 mph8.0 kmh 29.70 in1005.8 mb 0.00 in0.0 mm 0.00 in0.0 mm 0.00 in0.0 mm
10:35 AM 94.3°F34.6°C 50.8°F10.4°C 23% 2.0 mph NNW3.2 kmh NNW 5.0 mph8.0 kmh 29.70 in1005.8 mb 0.00 in0.0 mm 0.00 in0.0 mm 0.00 in0.0 mm
10:36 AM 94.3°F34.6°C 51.0°F10.6°C 23% 4.0 mph WSW6.4 kmh WSW 5.0 mph8.0 kmh 29.70 in1005.8 mb 0.00 in0.0 mm 0.00 in0.0 mm 0.00 in0.0 mm
10:40 AM 94.3°F34.6°C 50.8°F10.4°C 23% 2.0 mph W3.2 kmh W 7.0 mph11.3 kmh 29.70 in1005.8 mb 0.00 in0.0 mm 0.00 in0.0 mm 0.00 in0.0 mm
10:45 AM 94.7°F34.8°C 49.9°F9.9°C 22% 3.0 mph WSW4.8 kmh WSW 7.0 mph11.3 kmh 29.70 in1005.8 mb 0.00 in0.0 mm 0.00 in0.0 mm 0.00 in0.0 mm
10:46 AM 94.7°F34.8°C 50.0°F10.0°C 22% 2.0 mph SW3.2 kmh SW 7.0 mph11.3 kmh 29.70 in1005.8 mb 0.00 in0.0 mm 0.00 in0.0 mm 0.00 in0.0 mm
10:50 AM 95.2°F35.1°C 50.4°F10.2°C 22% 3.0 mph WSW4.8 kmh WSW 7.0 mph11.3 kmh 29.70 in1005.8 mb 0.00 in0.0 mm 0.00 in0.0 mm 0.00 in0.0 mm
10:51 AM 95.3°F35.2°C 51.0°F10.6°C 22% 4.0 mph NNW6.4 kmh NNW 7.0 mph11.3 kmh 29.70 in1005.8 mb 0.00 in0.0 mm 0.00 in0.0 mm 0.00 in0.0 mm
10:55 AM 95.4°F35.2°C 50.5°F10.3°C 22% 3.0 mph WNW4.8 kmh WNW 7.0 mph11.3 kmh 29.70 in1005.8 mb 0.00 in0.0 mm 0.00 in0.0 mm 0.00 in0.0 mm
11:00 AM 95.6°F35.3°C 50.7°F10.4°C 22% 2.0 mph NNW3.2 kmh NNW 5.0 mph8.0 kmh 29.70 in1005.8 mb 0.00 in0.0 mm 0.00 in0.0 mm 0.00 in0.0 mm
11:01 AM 95.7°F35.4°C 51.0°F10.6°C 22% 3.0 mph SE4.8 kmh SE 4.0 mph6.4 kmh 29.70 in1005.8 mb 0.00 in0.0 mm 0.00 in0.0 mm 0.00 in0.0 mm
11:05 AM 95.6°F35.3°C 50.7°F10.4°C 22% 2.0 mph E3.2 kmh E 5.0 mph8.0 kmh 29.70 in1005.8 mb 0.00 in0.0 mm 0.00 in0.0 mm 0.00 in0.0 mm
11:06 AM 95.6°F35.3°C 51.0°F10.6°C 22% 4.0 mph SSW6.4 kmh SSW 5.0 mph8.0 kmh 29.70 in1005.8 mb 0.00 in0.0 mm 0.00 in0.0 mm 0.00 in0.0 mm
11:10 AM 95.9°F35.5°C 49.7°F9.8°C 21% 3.0 mph SSW4.8 kmh SSW 6.0 mph9.7 kmh 29.70 in1005.8 mb 0.00 in0.0 mm 0.00 in0.0 mm 0.00 in0.0 mm
11:15 AM 96.6°F35.9°C 50.3°F10.2°C 21% 3.0 mph SW4.8 kmh SW 6.0 mph9.7 kmh 29.70 in1005.8 mb 0.00 in0.0 mm 0.00 in0.0 mm 0.00 in0.0 mm
11:16 AM 96.6°F35.9°C 51.0°F10.6°C 21% 2.0 mph SE3.2 kmh SE 7.0 mph11.3 kmh 29.70 in1005.8 mb 0.00 in0.0 mm 0.00 in0.0 mm 0.00 in0.0 mm
11:20 AM 96.5°F35.8°C 50.2°F10.1°C 21% 3.0 mph SW4.8 kmh SW 8.0 mph12.9 kmh 29.70 in1005.8 mb 0.00 in0.0 mm 0.00 in0.0 mm 0.00 in0.0 mm
11:21 AM 96.5°F35.8°C 51.0°F10.6°C 21% 2.0 mph WSW3.2 kmh WSW 8.0 mph12.9 kmh 29.70 in1005.8 mb 0.00 in0.0 mm 0.00 in0.0 mm 0.00 in0.0 mm
11:25 AM 96.5°F35.8°C 50.2°F10.1°C 21% 4.0 mph WSW6.4 kmh WSW 9.0 mph14.5 kmh 29.70 in1005.8 mb 0.00 in0.0 mm 0.00 in0.0 mm 0.00 in0.0 mm
11:30 AM 96.5°F35.8°C 50.2°F10.1°C 21% 3.0 mph WSW4.8 kmh WSW 9.0 mph14.5 kmh 29.69 in1005.4 mb 0.00 in0.0 mm 0.00 in0.0 mm 0.00 in0.0 mm
11:31 AM 96.6°F35.9°C 51.0°F10.6°C 21% 1.0 mph WSW1.6 kmh WSW 9.0 mph14.5 kmh 29.70 in1005.8 mb 0.00 in0.0 mm 0.00 in0.0 mm 0.00 in0.0 mm
11:35 AM 97.0°F36.1°C 50.6°F10.3°C 21% 2.0 mph W3.2 kmh W 7.0 mph11.3 kmh 29.69 in1005.4 mb 0.00 in0.0 mm 0.00 in0.0 mm 0.00 in0.0 mm
11:36 AM 97.0°F36.1°C 51.0°F10.6°C 21% 2.0 mph SW3.2 kmh SW 7.0 mph11.3 kmh 29.69 in1005.4 mb 0.00 in0.0 mm 0.00 in0.0 mm 0.00 in0.0 mm
11:40 AM 97.2°F36.2°C 50.8°F10.4°C 21% 3.0 mph W4.8 kmh W 7.0 mph11.3 kmh 29.69 in1005.4 mb 0.00 in0.0 mm 0.00 in0.0 mm 0.00 in0.0 mm
11:45 AM 97.2°F36.2°C 50.8°F10.4°C 21% 3.0 mph NW4.8 kmh NW 6.0 mph9.7 kmh 29.69 in1005.4 mb 0.00 in0.0 mm 0.00 in0.0 mm 0.00 in0.0 mm
11:46 AM 97.2°F36.2°C 51.0°F10.6°C 21% 5.0 mph NW8.0 kmh NW 6.0 mph9.7 kmh 29.69 in1005.4 mb 0.00 in0.0 mm 0.00 in0.0 mm 0.00 in0.0 mm
11:50 AM 97.6°F36.4°C 49.8°F9.9°C 20% 3.0 mph NW4.8 kmh NW 7.0 mph11.3 kmh 29.68 in1005.1 mb 0.00 in0.0 mm 0.00 in0.0 mm 0.00 in0.0 mm
11:55 AM 97.3°F36.3°C 49.5°F9.7°C 20% 4.0 mph W6.4 kmh W 8.0 mph12.9 kmh 29.68 in1005.1 mb 0.00 in0.0 mm 0.00 in0.0 mm 0.00 in0.0 mm
12:00 PM 97.2°F36.2°C 49.4°F9.7°C 20% 4.0 mph W6.4 kmh W 8.0 mph12.9 kmh 29.68 in1005.1 mb 0.00 in0.0 mm 0.00 in0.0 mm 0.00 in0.0 mm
12:01 PM 97.4°F36.3°C 50.0°F10.0°C 20% 3.0 mph NNW4.8 kmh NNW 8.0 mph12.9 kmh 29.68 in1005.1 mb 0.00 in0.0 mm 0.00 in0.0 mm 0.00 in0.0 mm
12:05 PM 97.4°F36.3°C 49.6°F9.8°C 20% 3.0 mph WNW4.8 kmh WNW 7.0 mph11.3 kmh 29.68 in1005.1 mb 0.00 in0.0 mm 0.00 in0.0 mm 0.00 in0.0 mm
12:10 PM 97.8°F36.6°C 49.9°F9.9°C 20% 3.0 mph NW4.8 kmh NW 8.0 mph12.9 kmh 29.67 in1004.7 mb 0.00 in0.0 mm 0.00 in0.0 mm 0.00 in0.0 mm
12:15 PM 98.3°F36.8°C 50.3°F10.2°C 20% 3.0 mph NW4.8 kmh NW 9.0 mph14.5 kmh 29.67 in1004.7 mb 0.00 in0.0 mm 0.00 in0.0 mm 0.00 in0.0 mm
12:16 PM 98.3°F36.8°C 51.0°F10.6°C 20% 6.0 mph WSW9.7 kmh WSW 9.0 mph14.5 kmh 29.67 in1004.7 mb 0.00 in0.0 mm 0.00 in0.0 mm 0.00 in0.0 mm
12:20 PM 98.6°F37.0°C 49.2°F9.6°C 19% 3.0 mph WNW4.8 kmh WNW 9.0 mph14.5 kmh 29.67 in1004.7 mb 0.00 in0.0 mm 0.00 in0.0 mm 0.00 in0.0 mm
12:21 PM 98.6°F37.0°C 50.0°F10.0°C 19% 1.0 mph W1.6 kmh W 9.0 mph14.5 kmh 29.67 in1004.7 mb 0.00 in0.0 mm 0.00 in0.0 mm 0.00 in0.0 mm
12:25 PM 98.3°F36.8°C 49.0°F9.4°C 19% 4.0 mph NW6.4 kmh NW 10.0 mph16.1 kmh 29.67 in1004.7 mb 0.00 in0.0 mm 0.00 in0.0 mm 0.00 in0.0 mm
12:30 PM 98.2°F36.8°C 48.9°F9.4°C 19% 4.0 mph NW6.4 kmh NW 10.0 mph16.1 kmh 29.66 in1004.4 mb 0.00 in0.0 mm 0.00 in0.0 mm 0.00 in0.0 mm
12:31 PM 98.3°F36.8°C 49.0°F9.4°C 19% 2.0 mph S3.2 kmh S 10.0 mph16.1 kmh 29.66 in1004.4 mb 0.00 in0.0 mm 0.00 in0.0 mm 0.00 in0.0 mm
12:35 PM 98.6°F37.0°C 49.2°F9.6°C 19% 4.0 mph W6.4 kmh W 10.0 mph16.1 kmh 29.66 in1004.4 mb 0.00 in0.0 mm 0.00 in0.0 mm 0.00 in0.0 mm
12:36 PM 98.6°F37.0°C 50.0°F10.0°C 19% 5.0 mph NNW8.0 kmh NNW 10.0 mph16.1 kmh 29.66 in1004.4 mb 0.00 in0.0 mm 0.00 in0.0 mm 0.00 in0.0 mm
12:40 PM 98.8°F37.1°C 49.4°F9.7°C 19% 3.0 mph NW4.8 kmh NW 10.0 mph16.1 kmh 29.66 in1004.4 mb 0.00 in0.0 mm 0.00 in0.0 mm 0.00 in0.0 mm
12:45 PM 98.6°F37.0°C 49.2°F9.6°C 19% 5.0 mph NW8.0 kmh NW 11.0 mph17.7 kmh 29.65 in1004.1 mb 0.00 in0.0 mm 0.00 in0.0 mm 0.00 in0.0 mm
12:46 PM 98.6°F37.0°C 50.0°F10.0°C 19% 10.0 mph NW16.1 kmh NW 11.0 mph17.7 kmh 29.65 in1004.1 mb 0.00 in0.0 mm 0.00 in0.0 mm 0.00 in0.0 mm
12:50 PM 98.9°F37.2°C 49.5°F9.7°C 19% 5.0 mph NW8.0 kmh NW 11.0 mph17.7 kmh 29.65 in1004.1 mb 0.00 in0.0 mm 0.00 in0.0 mm 0.00 in0.0 mm
12:55 PM 98.7°F37.1°C 49.3°F9.6°C 19% 4.0 mph NW6.4 kmh NW 10.0 mph16.1 kmh 29.65 in1004.1 mb 0.00 in0.0 mm 0.00 in0.0 mm 0.00 in0.0 mm
01:00 PM 98.8°F37.1°C 49.4°F9.7°C 19% 4.0 mph NW6.4 kmh NW 9.0 mph14.5 kmh 29.65 in1004.1 mb 0.00 in0.0 mm 0.00 in0.0 mm 0.00 in0.0 mm
01:01 PM 98.9°F37.2°C 50.0°F10.0°C 19% 2.0 mph SW3.2 kmh SW 7.0 mph11.3 kmh 29.65 in1004.1 mb 0.00 in0.0 mm 0.00 in0.0 mm 0.00 in0.0 mm
01:05 PM 99.6°F37.6°C 50.0°F10.0°C 19% 3.0 mph WSW4.8 kmh WSW 8.0 mph12.9 kmh 29.65 in1004.1 mb 0.00 in0.0 mm 0.00 in0.0 mm 0.00 in0.0 mm
01:10 PM 100.2°F37.9°C 49.1°F9.5°C 18% 4.0 mph SW6.4 kmh SW 8.0 mph12.9 kmh 29.64 in1003.7 mb 0.00 in0.0 mm 0.00 in0.0 mm 0.00 in0.0 mm
01:11 PM 100.2°F37.9°C 50.0°F10.0°C 18% 3.0 mph SW4.8 kmh SW 8.0 mph12.9 kmh 29.64 in1003.7 mb 0.00 in0.0 mm 0.00 in0.0 mm 0.00 in0.0 mm
01:15 PM 100.1°F37.8°C 49.0°F9.4°C 18% 4.0 mph WSW6.4 kmh WSW 9.0 mph14.5 kmh 29.64 in1003.7 mb 0.00 in0.0 mm 0.00 in0.0 mm 0.00 in0.0 mm
01:16 PM 100.1°F37.8°C 50.0°F10.0°C 18% 3.0 mph NW4.8 kmh NW 9.0 mph14.5 kmh 29.64 in1003.7 mb 0.00 in0.0 mm 0.00 in0.0 mm 0.00 in0.0 mm
01:20 PM 100.2°F37.9°C 49.1°F9.5°C 18% 4.0 mph WNW6.4 kmh WNW 9.0 mph14.5 kmh 29.64 in1003.7 mb 0.00 in0.0 mm 0.00 in0.0 mm 0.00 in0.0 mm
01:25 PM 100.4°F38.0°C 49.2°F9.6°C 18% 4.0 mph NW6.4 kmh NW 13.0 mph20.9 kmh 29.64 in1003.7 mb 0.00 in0.0 mm 0.00 in0.0 mm 0.00 in0.0 mm
01:26 PM 100.4°F38.0°C 50.0°F10.0°C 18% 4.0 mph WNW6.4 kmh WNW 13.0 mph20.9 kmh 29.64 in1003.7 mb 0.00 in0.0 mm 0.00 in0.0 mm 0.00 in0.0 mm
01:30 PM 101.0°F38.3°C 49.7°F9.8°C 18% 4.0 mph NW6.4 kmh NW 13.0 mph20.9 kmh 29.63 in1003.4 mb 0.00 in0.0 mm 0.00 in0.0 mm 0.00 in0.0 mm
01:31 PM 101.0°F38.3°C 50.0°F10.0°C 18% 4.0 mph W6.4 kmh W 13.0 mph20.9 kmh 29.63 in1003.4 mb 0.00 in0.0 mm 0.00 in0.0 mm 0.00 in0.0 mm
01:35 PM 101.0°F38.3°C 49.7°F9.8°C 18% 4.0 mph WNW6.4 kmh WNW 10.0 mph16.1 kmh 29.63 in1003.4 mb 0.00 in0.0 mm 0.00 in0.0 mm 0.00 in0.0 mm
01:40 PM 100.7°F38.2°C 47.9°F8.8°C 17% 5.0 mph NW8.0 kmh NW 10.0 mph16.1 kmh 29.63 in1003.4 mb 0.00 in0.0 mm 0.00 in0.0 mm 0.00 in0.0 mm
01:41 PM 100.7°F38.2°C 50.0°F10.0°C 18% 8.0 mph WSW12.9 kmh WSW 10.0 mph16.1 kmh 29.63 in1003.4 mb 0.00 in0.0 mm 0.00 in0.0 mm 0.00 in0.0 mm
01:45 PM 101.0°F38.3°C 48.2°F9.0°C 17% 4.0 mph WNW6.4 kmh WNW 10.0 mph16.1 kmh 29.62 in1003.0 mb 0.00 in0.0 mm 0.00 in0.0 mm 0.00 in0.0 mm
01:46 PM 101.0°F38.3°C 49.0°F9.4°C 17% 3.0 mph WSW4.8 kmh WSW 10.0 mph16.1 kmh 29.62 in1003.0 mb 0.00 in0.0 mm 0.00 in0.0 mm 0.00 in0.0 mm
01:50 PM 101.3°F38.5°C 48.4°F9.1°C 17% 3.0 mph W4.8 kmh W 9.0 mph14.5 kmh 29.62 in1003.0 mb 0.00 in0.0 mm 0.00 in0.0 mm 0.00 in0.0 mm
01:55 PM 101.5°F38.6°C 48.6°F9.2°C 17% 4.0 mph W6.4 kmh W 8.0 mph12.9 kmh 29.62 in1003.0 mb 0.00 in0.0 mm 0.00 in0.0 mm 0.00 in0.0 mm
01:56 PM 101.5°F38.6°C 49.0°F9.4°C 17% 3.0 mph WSW4.8 kmh WSW 8.0 mph12.9 kmh 29.62 in1003.0 mb 0.00 in0.0 mm 0.00 in0.0 mm 0.00 in0.0 mm
02:00 PM 101.7°F38.7°C 47.1°F8.4°C 16% 5.0 mph W8.0 kmh W 10.0 mph16.1 kmh 29.62 in1003.0 mb 0.00 in0.0 mm 0.00 in0.0 mm 0.00 in0.0 mm
02:01 PM 101.7°F38.7°C 49.0°F9.4°C 17% 4.0 mph N6.4 kmh N 10.0 mph16.1 kmh 29.62 in1003.0 mb 0.00 in0.0 mm 0.00 in0.0 mm 0.00 in0.0 mm
02:05 PM 101.4°F38.6°C 48.5°F9.2°C 17% 5.0 mph NW8.0 kmh NW 11.0 mph17.7 kmh 29.61 in1002.7 mb 0.00 in0.0 mm 0.00 in0.0 mm 0.00 in0.0 mm
02:10 PM 101.4°F38.6°C 46.9°F8.3°C 16% 5.0 mph W8.0 kmh W 11.0 mph17.7 kmh 29.61 in1002.7 mb 0.00 in0.0 mm 0.00 in0.0 mm 0.00 in0.0 mm
02:15 PM 101.8°F38.8°C 47.2°F8.4°C 16% 5.0 mph SW8.0 kmh SW 11.0 mph17.7 kmh 29.61 in1002.7 mb 0.00 in0.0 mm 0.00 in0.0 mm 0.00 in0.0 mm
02:16 PM 101.8°F38.8°C 48.0°F8.9°C 16% 4.0 mph SSE6.4 kmh SSE 11.0 mph17.7 kmh 29.61 in1002.7 mb 0.00 in0.0 mm 0.00 in0.0 mm 0.00 in0.0 mm
02:20 PM 101.6°F38.7°C 47.0°F8.3°C 16% 4.0 mph SSW6.4 kmh SSW 10.0 mph16.1 kmh 29.61 in1002.7 mb 0.00 in0.0 mm 0.00 in0.0 mm 0.00 in0.0 mm
02:21 PM 101.5°F38.6°C 48.0°F8.9°C 16% 2.0 mph SW3.2 kmh SW 10.0 mph16.1 kmh 29.61 in1002.7 mb 0.00 in0.0 mm 0.00 in0.0 mm 0.00 in0.0 mm
02:25 PM 101.4°F38.6°C 46.9°F8.3°C 16% 4.0 mph W6.4 kmh W 13.0 mph20.9 kmh 29.61 in1002.7 mb 0.00 in0.0 mm 0.00 in0.0 mm 0.00 in0.0 mm
02:26 PM 101.4°F38.6°C 47.0°F8.3°C 16% 3.0 mph WSW4.8 kmh WSW 13.0 mph20.9 kmh 29.61 in1002.7 mb 0.00 in0.0 mm 0.00 in0.0 mm 0.00 in0.0 mm
02:30 PM 101.0°F38.3°C 46.6°F8.1°C 16% 5.0 mph WNW8.0 kmh WNW 13.0 mph20.9 kmh 29.60 in1002.4 mb 0.00 in0.0 mm 0.00 in0.0 mm 0.00 in0.0 mm
02:31 PM 100.9°F38.3°C 47.0°F8.3°C 16% 5.0 mph NW8.0 kmh NW 11.0 mph17.7 kmh 29.60 in1002.4 mb 0.00 in0.0 mm 0.00 in0.0 mm 0.00 in0.0 mm
02:35 PM 100.4°F38.0°C 47.7°F8.7°C 17% 5.0 mph WNW8.0 kmh WNW 8.0 mph12.9 kmh 29.60 in1002.4 mb 0.00 in0.0 mm 0.00 in0.0 mm 0.00 in0.0 mm
02:40 PM 100.7°F38.2°C 47.9°F8.8°C 17% 4.0 mph WSW6.4 kmh WSW 8.0 mph12.9 kmh 29.60 in1002.4 mb 0.00 in0.0 mm 0.00 in0.0 mm 0.00 in0.0 mm
02:45 PM 101.0°F38.3°C 46.6°F8.1°C 16% 4.0 mph WSW6.4 kmh WSW 7.0 mph11.3 kmh 29.60 in1002.4 mb 0.00 in0.0 mm 0.00 in0.0 mm 0.00 in0.0 mm
02:46 PM 101.0°F38.3°C 47.0°F8.3°C 16% 3.0 mph W4.8 kmh W 7.0 mph11.3 kmh 29.60 in1002.4 mb 0.00 in0.0 mm 0.00 in0.0 mm 0.00 in0.0 mm
02:50 PM 101.1°F38.4°C 46.6°F8.1°C 16% 2.0 mph W3.2 kmh W 7.0 mph11.3 kmh 29.59 in1002.0 mb 0.00 in0.0 mm 0.00 in0.0 mm 0.00 in0.0 mm
02:55 PM 101.8°F38.8°C 47.2°F8.4°C 16% 2.0 mph NW3.2 kmh NW 8.0 mph12.9 kmh 29.59 in1002.0 mb 0.00 in0.0 mm 0.00 in0.0 mm 0.00 in0.0 mm
03:00 PM 101.4°F38.6°C 46.9°F8.3°C 16% 4.0 mph NW6.4 kmh NW 10.0 mph16.1 kmh 29.59 in1002.0 mb 0.00 in0.0 mm 0.00 in0.0 mm 0.00 in0.0 mm
03:01 PM 101.3°F38.5°C 47.0°F8.3°C 16% 4.0 mph WSW6.4 kmh WSW 10.0 mph16.1 kmh 29.59 in1002.0 mb 0.00 in0.0 mm 0.00 in0.0 mm 0.00 in0.0 mm
03:05 PM 101.3°F38.5°C 46.8°F8.2°C 16% 5.0 mph NW8.0 kmh NW 10.0 mph16.1 kmh 29.59 in1002.0 mb 0.00 in0.0 mm 0.00 in0.0 mm 0.00 in0.0 mm
03:10 PM 101.2°F38.4°C 46.7°F8.2°C 16% 5.0 mph WNW8.0 kmh WNW 11.0 mph17.7 kmh 29.59 in1002.0 mb 0.00 in0.0 mm 0.00 in0.0 mm 0.00 in0.0 mm
03:15 PM 101.4°F38.6°C 46.9°F8.3°C 16% 5.0 mph WNW8.0 kmh WNW 11.0 mph17.7 kmh 29.59 in1002.0 mb 0.00 in0.0 mm 0.00 in0.0 mm 0.00 in0.0 mm
03:16 PM 101.4°F38.6°C 47.0°F8.3°C 16% 2.0 mph WNW3.2 kmh WNW 11.0 mph17.7 kmh 29.59 in1002.0 mb 0.00 in0.0 mm 0.00 in0.0 mm 0.00 in0.0 mm
03:20 PM 101.8°F38.8°C 47.2°F8.4°C 16% 4.0 mph NW6.4 kmh NW 11.0 mph17.7 kmh 29.58 in1001.7 mb 0.00 in0.0 mm 0.00 in0.0 mm 0.00 in0.0 mm
03:25 PM 101.3°F38.5°C 46.8°F8.2°C 16% 5.0 mph NW8.0 kmh NW 11.0 mph17.7 kmh 29.58 in1001.7 mb 0.00 in0.0 mm 0.00 in0.0 mm 0.00 in0.0 mm
03:30 PM 100.8°F38.2°C 48.0°F8.9°C 17% 4.0 mph WNW6.4 kmh WNW 10.0 mph16.1 kmh 29.58 in1001.7 mb 0.00 in0.0 mm 0.00 in0.0 mm 0.00 in0.0 mm
03:31 PM 100.7°F38.2°C 48.0°F8.9°C 17% 3.0 mph NW4.8 kmh NW 10.0 mph16.1 kmh 29.58 in1001.7 mb 0.00 in0.0 mm 0.00 in0.0 mm 0.00 in0.0 mm
03:35 PM 100.2°F37.9°C 47.5°F8.6°C 17% 4.0 mph WNW6.4 kmh WNW 9.0 mph14.5 kmh 29.58 in1001.7 mb 0.00 in0.0 mm 0.00 in0.0 mm 0.00 in0.0 mm
03:36 PM 100.2°F37.9°C 48.0°F8.9°C 17% 3.0 mph W4.8 kmh W 9.0 mph14.5 kmh 29.58 in1001.7 mb 0.00 in0.0 mm 0.00 in0.0 mm 0.00 in0.0 mm
03:40 PM 99.8°F37.7°C 47.2°F8.4°C 17% 4.0 mph W6.4 kmh W 8.0 mph12.9 kmh 29.58 in1001.7 mb 0.00 in0.0 mm 0.00 in0.0 mm 0.00 in0.0 mm
03:45 PM 99.5°F37.5°C 47.0°F8.3°C 17% 4.0 mph W6.4 kmh W 9.0 mph14.5 kmh 29.58 in1001.7 mb 0.00 in0.0 mm 0.00 in0.0 mm 0.00 in0.0 mm
03:46 PM 99.5°F37.5°C 47.0°F8.3°C 17% 2.0 mph WSW3.2 kmh WSW 9.0 mph14.5 kmh 29.58 in1001.7 mb 0.00 in0.0 mm 0.00 in0.0 mm 0.00 in0.0 mm
03:50 PM 99.6°F37.6°C 47.0°F8.3°C 17% 4.0 mph W6.4 kmh W 9.0 mph14.5 kmh 29.58 in1001.7 mb 0.00 in0.0 mm 0.00 in0.0 mm 0.00 in0.0 mm
03:51 PM 99.6°F37.6°C 48.0°F8.9°C 17% 4.0 mph NW6.4 kmh NW 9.0 mph14.5 kmh 29.58 in1001.7 mb 0.00 in0.0 mm 0.00 in0.0 mm 0.00 in0.0 mm
03:55 PM 99.8°F37.7°C 47.2°F8.4°C 17% 3.0 mph NW4.8 kmh NW 8.0 mph12.9 kmh 29.58 in1001.7 mb 0.00 in0.0 mm 0.00 in0.0 mm 0.00 in0.0 mm
03:56 PM 99.8°F37.7°C 48.0°F8.9°C 17% 2.0 mph N3.2 kmh N 8.0 mph12.9 kmh 29.58 in1001.7 mb 0.00 in0.0 mm 0.00 in0.0 mm 0.00 in0.0 mm
04:00 PM 100.2°F37.9°C 47.5°F8.6°C 17% 3.0 mph NW4.8 kmh NW 10.0 mph16.1 kmh 29.58 in1001.7 mb 0.00 in0.0 mm 0.00 in0.0 mm 0.00 in0.0 mm
04:01 PM 100.3°F37.9°C 48.0°F8.9°C 17% 5.0 mph NW8.0 kmh NW 10.0 mph16.1 kmh 29.58 in1001.7 mb 0.00 in0.0 mm 0.00 in0.0 mm 0.00 in0.0 mm
04:05 PM 100.6°F38.1°C 47.8°F8.8°C 17% 4.0 mph NW6.4 kmh NW 10.0 mph16.1 kmh 29.58 in1001.7 mb 0.00 in0.0 mm 0.00 in0.0 mm 0.00 in0.0 mm
04:06 PM 100.6°F38.1°C 48.0°F8.9°C 17% 4.0 mph WSW6.4 kmh WSW 10.0 mph16.1 kmh 29.58 in1001.7 mb 0.00 in0.0 mm 0.00 in0.0 mm 0.00 in0.0 mm
04:10 PM 100.8°F38.2°C 46.4°F8.0°C 16% 5.0 mph W8.0 kmh W 10.0 mph16.1 kmh 29.58 in1001.7 mb 0.00 in0.0 mm 0.00 in0.0 mm 0.00 in0.0 mm
04:11 PM 100.8°F38.2°C 49.0°F9.4°C 17% 2.0 mph WNW3.2 kmh WNW 11.0 mph17.7 kmh 29.57 in1001.4 mb 0.00 in0.0 mm 0.00 in0.0 mm 0.00 in0.0 mm
04:15 PM 100.8°F38.2°C 48.0°F8.9°C 17% 5.0 mph W8.0 kmh W 10.0 mph16.1 kmh 29.58 in1001.7 mb 0.00 in0.0 mm 0.00 in0.0 mm 0.00 in0.0 mm
04:16 PM 100.8°F38.2°C 49.0°F9.4°C 17% 4.0 mph NW6.4 kmh NW 11.0 mph17.7 kmh 29.58 in1001.7 mb 0.00 in0.0 mm 0.00 in0.0 mm 0.00 in0.0 mm
04:20 PM 100.7°F38.2°C 47.9°F8.8°C 17% 5.0 mph WNW8.0 kmh WNW 12.0 mph19.3 kmh 29.58 in1001.7 mb 0.00 in0.0 mm 0.00 in0.0 mm 0.00 in0.0 mm
04:21 PM 100.7°F38.2°C 48.0°F8.9°C 17% 4.0 mph NW6.4 kmh NW 12.0 mph19.3 kmh 29.58 in1001.7 mb 0.00 in0.0 mm 0.00 in0.0 mm 0.00 in0.0 mm
04:25 PM 100.2°F37.9°C 47.5°F8.6°C 17% 5.0 mph NW8.0 kmh NW 12.0 mph19.3 kmh 29.57 in1001.4 mb 0.00 in0.0 mm 0.00 in0.0 mm 0.00 in0.0 mm
04:26 PM 100.2°F37.9°C 48.0°F8.9°C 17% 5.0 mph WNW8.0 kmh WNW 11.0 mph17.7 kmh 29.57 in1001.4 mb 0.00 in0.0 mm 0.00 in0.0 mm 0.00 in0.0 mm
04:30 PM 99.3°F37.4°C 46.8°F8.2°C 17% 5.0 mph NW8.0 kmh NW 10.0 mph16.1 kmh 29.57 in1001.4 mb 0.00 in0.0 mm 0.00 in0.0 mm 0.00 in0.0 mm
04:31 PM 99.1°F37.3°C 47.0°F8.3°C 17% 7.0 mph WNW11.3 kmh WNW 11.0 mph17.7 kmh 29.58 in1001.7 mb 0.00 in0.0 mm 0.00 in0.0 mm 0.00 in0.0 mm
04:35 PM 98.6°F37.0°C 47.8°F8.8°C 18% 4.0 mph NW6.4 kmh NW 9.0 mph14.5 kmh 29.58 in1001.7 mb 0.00 in0.0 mm 0.00 in0.0 mm 0.00 in0.0 mm
04:36 PM 98.6°F37.0°C 48.0°F8.9°C 18% 3.0 mph W4.8 kmh W 9.0 mph14.5 kmh 29.58 in1001.7 mb 0.00 in0.0 mm 0.00 in0.0 mm 0.00 in0.0 mm
04:40 PM 98.5°F36.9°C 47.7°F8.7°C 18% 4.0 mph WNW6.4 kmh WNW 8.0 mph12.9 kmh 29.57 in1001.4 mb 0.00 in0.0 mm 0.00 in0.0 mm 0.00 in0.0 mm
04:41 PM 98.6°F37.0°C 48.0°F8.9°C 18% 4.0 mph NNW6.4 kmh NNW 8.0 mph12.9 kmh 29.58 in1001.7 mb 0.00 in0.0 mm 0.00 in0.0 mm 0.00 in0.0 mm
04:45 PM 98.5°F36.9°C 47.7°F8.7°C 18% 4.0 mph NW6.4 kmh NW 9.0 mph14.5 kmh 29.58 in1001.7 mb 0.00 in0.0 mm 0.00 in0.0 mm 0.00 in0.0 mm
04:46 PM 98.5°F36.9°C 48.0°F8.9°C 18% 9.0 mph NW14.5 kmh NW 9.0 mph14.5 kmh 29.58 in1001.7 mb 0.00 in0.0 mm 0.00 in0.0 mm 0.00 in0.0 mm
04:50 PM 98.1°F36.7°C 47.4°F8.6°C 18% 5.0 mph NW8.0 kmh NW 13.0 mph20.9 kmh 29.57 in1001.4 mb 0.00 in0.0 mm 0.00 in0.0 mm 0.00 in0.0 mm
04:51 PM 98.0°F36.7°C 48.0°F8.9°C 18% 3.0 mph NW4.8 kmh NW 13.0 mph20.9 kmh 29.57 in1001.4 mb 0.00 in0.0 mm 0.00 in0.0 mm 0.00 in0.0 mm
04:55 PM 97.7°F36.5°C 47.0°F8.3°C 18% 5.0 mph NW8.0 kmh NW 13.0 mph20.9 kmh 29.58 in1001.7 mb 0.00 in0.0 mm 0.00 in0.0 mm 0.00 in0.0 mm
04:56 PM 97.7°F36.5°C 48.0°F8.9°C 18% 2.0 mph WNW3.2 kmh WNW 13.0 mph20.9 kmh 29.58 in1001.7 mb 0.00 in0.0 mm 0.00 in0.0 mm 0.00 in0.0 mm
05:00 PM 97.5°F36.4°C 46.9°F8.3°C 18% 4.0 mph NW6.4 kmh NW 10.0 mph16.1 kmh 29.58 in1001.7 mb 0.00 in0.0 mm 0.00 in0.0 mm 0.00 in0.0 mm
05:01 PM 97.5°F36.4°C 47.0°F8.3°C 18% 3.0 mph WNW4.8 kmh WNW 10.0 mph16.1 kmh 29.58 in1001.7 mb 0.00 in0.0 mm 0.00 in0.0 mm 0.00 in0.0 mm
05:05 PM 97.3°F36.3°C 46.7°F8.2°C 18% 3.0 mph W4.8 kmh W 8.0 mph12.9 kmh 29.59 in1002.0 mb 0.00 in0.0 mm 0.00 in0.0 mm 0.00 in0.0 mm
05:06 PM 97.3°F36.3°C 47.0°F8.3°C 18% 4.0 mph W6.4 kmh W 8.0 mph12.9 kmh 29.59 in1002.0 mb 0.00 in0.0 mm 0.00 in0.0 mm 0.00 in0.0 mm
05:10 PM 96.9°F36.1°C 49.2°F9.6°C 20% 5.0 mph SW8.0 kmh SW 10.0 mph16.1 kmh 29.59 in1002.0 mb 0.00 in0.0 mm 0.00 in0.0 mm 0.00 in0.0 mm
05:11 PM 96.7°F35.9°C 51.0°F10.6°C 21% 7.0 mph S11.3 kmh S 10.0 mph16.1 kmh 29.59 in1002.0 mb 0.00 in0.0 mm 0.00 in0.0 mm 0.00 in0.0 mm
05:15 PM 96.2°F35.7°C 49.9°F9.9°C 21% 4.0 mph SW6.4 kmh SW 10.0 mph16.1 kmh 29.59 in1002.0 mb 0.00 in0.0 mm 0.00 in0.0 mm 0.00 in0.0 mm
05:16 PM 96.2°F35.7°C 50.0°F10.0°C 21% 2.0 mph SSW3.2 kmh SSW 10.0 mph16.1 kmh 29.59 in1002.0 mb 0.00 in0.0 mm 0.00 in0.0 mm 0.00 in0.0 mm
05:20 PM 95.8°F35.4°C 50.9°F10.5°C 22% 3.0 mph SW4.8 kmh SW 9.0 mph14.5 kmh 29.59 in1002.0 mb 0.00 in0.0 mm 0.00 in0.0 mm 0.00 in0.0 mm
05:21 PM 95.7°F35.4°C 51.0°F10.6°C 22% 2.0 mph WSW3.2 kmh WSW 5.0 mph8.0 kmh 29.59 in1002.0 mb 0.00 in0.0 mm 0.00 in0.0 mm 0.00 in0.0 mm
05:25 PM 95.1°F35.1°C 50.3°F10.2°C 22% 2.0 mph SW3.2 kmh SW 5.0 mph8.0 kmh 29.59 in1002.0 mb 0.00 in0.0 mm 0.00 in0.0 mm 0.00 in0.0 mm
05:26 PM 95.1°F35.1°C 51.0°F10.6°C 22% 4.0 mph S6.4 kmh S 5.0 mph8.0 kmh 29.59 in1002.0 mb 0.00 in0.0 mm 0.00 in0.0 mm 0.00 in0.0 mm
05:30 PM 94.6°F34.8°C 49.9°F9.9°C 22% 3.0 mph SW4.8 kmh SW 10.0 mph16.1 kmh 29.59 in1002.0 mb 0.00 in0.0 mm 0.00 in0.0 mm 0.00 in0.0 mm
05:31 PM 94.5°F34.7°C 50.0°F10.0°C 22% 10.0 mph S16.1 kmh S 14.0 mph22.5 kmh 29.59 in1002.0 mb 0.00 in0.0 mm 0.00 in0.0 mm 0.00 in0.0 mm
05:35 PM 94.1°F34.5°C 49.4°F9.7°C 22% 5.0 mph SSW8.0 kmh SSW 14.0 mph22.5 kmh 29.59 in1002.0 mb 0.00 in0.0 mm 0.00 in0.0 mm 0.00 in0.0 mm
05:36 PM 94.1°F34.5°C 50.0°F10.0°C 22% 7.0 mph SSW11.3 kmh SSW 15.0 mph24.1 kmh 29.59 in1002.0 mb 0.00 in0.0 mm 0.00 in0.0 mm 0.00 in0.0 mm
05:40 PM 93.9°F34.4°C 48.0°F8.9°C 21% 8.0 mph SSW12.9 kmh SSW 17.0 mph27.4 kmh 29.59 in1002.0 mb 0.00 in0.0 mm 0.00 in0.0 mm 0.00 in0.0 mm
05:41 PM 93.8°F34.3°C 48.0°F8.9°C 21% 6.0 mph SSW9.7 kmh SSW 16.0 mph25.7 kmh 29.59 in1002.0 mb 0.00 in0.0 mm 0.00 in0.0 mm 0.00 in0.0 mm
05:45 PM 93.9°F34.4°C 48.0°F8.9°C 21% 8.0 mph SSW12.9 kmh SSW 17.0 mph27.4 kmh 29.59 in1002.0 mb 0.00 in0.0 mm 0.00 in0.0 mm 0.00 in0.0 mm
05:46 PM 93.9°F34.4°C 48.0°F8.9°C 21% 10.0 mph SSE16.1 kmh SSE 16.0 mph25.7 kmh 29.59 in1002.0 mb 0.00 in0.0 mm 0.00 in0.0 mm 0.00 in0.0 mm
05:50 PM 94.1°F34.5°C 48.2°F9.0°C 21% 8.0 mph S12.9 kmh S 16.0 mph25.7 kmh 29.59 in1002.0 mb 0.00 in0.0 mm 0.00 in0.0 mm 0.00 in0.0 mm
05:51 PM 94.1°F34.5°C 47.0°F8.3°C 20% 5.0 mph SSE8.0 kmh SSE 15.0 mph24.1 kmh 29.59 in1002.0 mb 0.00 in0.0 mm 0.00 in0.0 mm 0.00 in0.0 mm
05:55 PM 94.1°F34.5°C 48.2°F9.0°C 21% 6.0 mph S9.7 kmh S 14.0 mph22.5 kmh 29.59 in1002.0 mb 0.00 in0.0 mm 0.00 in0.0 mm 0.00 in0.0 mm
05:56 PM 94.1°F34.5°C 49.0°F9.4°C 21% 1.0 mph SSE1.6 kmh SSE 15.0 mph24.1 kmh 29.59 in1002.0 mb 0.00 in0.0 mm 0.00 in0.0 mm 0.00 in0.0 mm
06:00 PM 94.1°F34.5°C 46.9°F8.3°C 20% 5.0 mph S8.0 kmh S 13.0 mph20.9 kmh 29.59 in1002.0 mb 0.00 in0.0 mm 0.00 in0.0 mm 0.00 in0.0 mm
06:01 PM 94.1°F34.5°C 47.0°F8.3°C 20% 6.0 mph S9.7 kmh S 13.0 mph20.9 kmh 29.59 in1002.0 mb 0.00 in0.0 mm 0.00 in0.0 mm 0.00 in0.0 mm
06:05 PM 94.0°F34.4°C 46.8°F8.2°C 20% 5.0 mph S8.0 kmh S 13.0 mph20.9 kmh 29.59 in1002.0 mb 0.00 in0.0 mm 0.00 in0.0 mm 0.00 in0.0 mm
06:06 PM 94.0°F34.4°C 47.0°F8.3°C 20% 3.0 mph SSW4.8 kmh SSW 13.0 mph20.9 kmh 29.59 in1002.0 mb 0.00 in0.0 mm 0.00 in0.0 mm 0.00 in0.0 mm
06:10 PM 94.0°F34.4°C 46.8°F8.2°C 20% 4.0 mph S6.4 kmh S 10.0 mph16.1 kmh 29.59 in1002.0 mb 0.00 in0.0 mm 0.00 in0.0 mm 0.00 in0.0 mm
06:11 PM 94.0°F34.4°C 47.0°F8.3°C 20% 1.0 mph SSW1.6 kmh SSW 10.0 mph16.1 kmh 29.59 in1002.0 mb 0.00 in0.0 mm 0.00 in0.0 mm 0.00 in0.0 mm
06:15 PM 94.0°F34.4°C 46.8°F8.2°C 20% 3.0 mph S4.8 kmh S 7.0 mph11.3 kmh 29.59 in1002.0 mb 0.00 in0.0 mm 0.00 in0.0 mm 0.00 in0.0 mm
06:16 PM 94.0°F34.4°C 47.0°F8.3°C 20% 4.0 mph S6.4 kmh S 7.0 mph11.3 kmh 29.59 in1002.0 mb 0.00 in0.0 mm 0.00 in0.0 mm 0.00 in0.0 mm
06:20 PM 93.9°F34.4°C 48.0°F8.9°C 21% 3.0 mph S4.8 kmh S 5.0 mph8.0 kmh 29.58 in1001.7 mb 0.00 in0.0 mm 0.00 in0.0 mm 0.00 in0.0 mm
06:21 PM 93.9°F34.4°C 48.0°F8.9°C 21% 1.0 mph S1.6 kmh S 5.0 mph8.0 kmh 29.58 in1001.7 mb 0.00 in0.0 mm 0.00 in0.0 mm 0.00 in0.0 mm
06:25 PM 93.9°F34.4°C 48.0°F8.9°C 21% 2.0 mph S3.2 kmh S 5.0 mph8.0 kmh 29.58 in1001.7 mb 0.00 in0.0 mm 0.00 in0.0 mm 0.00 in0.0 mm
06:26 PM 93.9°F34.4°C 48.0°F8.9°C 21% 2.0 mph S3.2 kmh S 4.0 mph6.4 kmh 29.58 in1001.7 mb 0.00 in0.0 mm 0.00 in0.0 mm 0.00 in0.0 mm
06:30 PM 93.8°F34.3°C 48.0°F8.9°C 21% 1.0 mph S1.6 kmh S 4.0 mph6.4 kmh 29.58 in1001.7 mb 0.00 in0.0 mm 0.00 in0.0 mm 0.00 in0.0 mm
06:31 PM 93.8°F34.3°C 48.0°F8.9°C 21% 1.0 mph S1.6 kmh S 4.0 mph6.4 kmh 29.59 in1002.0 mb 0.00 in0.0 mm 0.00 in0.0 mm 0.00 in0.0 mm
06:35 PM 93.6°F34.2°C 47.8°F8.8°C 21% 2.0 mph SSW3.2 kmh SSW 4.0 mph6.4 kmh 29.58 in1001.7 mb 0.00 in0.0 mm 0.00 in0.0 mm 0.00 in0.0 mm
06:36 PM 93.6°F34.2°C 48.0°F8.9°C 21% 1.0 mph SW1.6 kmh SW 4.0 mph6.4 kmh 29.58 in1001.7 mb 0.00 in0.0 mm 0.00 in0.0 mm 0.00 in0.0 mm
06:40 PM 93.4°F34.1°C 47.6°F8.7°C 21% 2.0 mph SW3.2 kmh SW 4.0 mph6.4 kmh 29.58 in1001.7 mb 0.00 in0.0 mm 0.00 in0.0 mm 0.00 in0.0 mm
06:41 PM 93.4°F34.1°C 48.0°F8.9°C 21% 2.0 mph SW3.2 kmh SW 4.0 mph6.4 kmh 29.58 in1001.7 mb 0.00 in0.0 mm 0.00 in0.0 mm 0.00 in0.0 mm
06:45 PM 93.2°F34.0°C 47.5°F8.6°C 21% 2.0 mph SW3.2 kmh SW 4.0 mph6.4 kmh 29.59 in1002.0 mb 0.00 in0.0 mm 0.00 in0.0 mm 0.00 in0.0 mm
06:46 PM 93.2°F34.0°C 48.0°F8.9°C 21% 1.0 mph SW1.6 kmh SW 4.0 mph6.4 kmh 29.59 in1002.0 mb 0.00 in0.0 mm 0.00 in0.0 mm 0.00 in0.0 mm
06:50 PM 93.0°F33.9°C 48.5°F9.2°C 22% 1.0 mph SW1.6 kmh SW 4.0 mph6.4 kmh 29.59 in1002.0 mb 0.00 in0.0 mm 0.00 in0.0 mm 0.00 in0.0 mm
06:51 PM 93.0°F33.9°C 49.0°F9.4°C 22% 1.0 mph SW1.6 kmh SW 4.0 mph6.4 kmh 29.59 in1002.0 mb 0.00 in0.0 mm 0.00 in0.0 mm 0.00 in0.0 mm
06:55 PM 92.8°F33.8°C 48.4°F9.1°C 22% 1.0 mph SW1.6 kmh SW 4.0 mph6.4 kmh 29.58 in1001.7 mb 0.00 in0.0 mm 0.00 in0.0 mm 0.00 in0.0 mm
06:56 PM 92.8°F33.8°C 49.0°F9.4°C 22% 1.0 mph WSW1.6 kmh WSW 4.0 mph6.4 kmh 29.58 in1001.7 mb 0.00 in0.0 mm 0.00 in0.0 mm 0.00 in0.0 mm
07:00 PM 92.6°F33.7°C 48.2°F9.0°C 22% 2.0 mph WSW3.2 kmh WSW 4.0 mph6.4 kmh 29.59 in1002.0 mb 0.00 in0.0 mm 0.00 in0.0 mm 0.00 in0.0 mm
07:01 PM 92.5°F33.6°C 48.0°F8.9°C 22% 2.0 mph WSW3.2 kmh WSW 4.0 mph6.4 kmh 29.59 in1002.0 mb 0.00 in0.0 mm 0.00 in0.0 mm 0.00 in0.0 mm
07:05 PM 92.3°F33.5°C 49.1°F9.5°C 23% 2.0 mph WSW3.2 kmh WSW 4.0 mph6.4 kmh 29.59 in1002.0 mb 0.00 in0.0 mm 0.00 in0.0 mm 0.00 in0.0 mm
07:06 PM 92.3°F33.5°C 49.0°F9.4°C 23% 1.0 mph WSW1.6 kmh WSW 4.0 mph6.4 kmh 29.59 in1002.0 mb 0.00 in0.0 mm 0.00 in0.0 mm 0.00 in0.0 mm
07:10 PM 92.2°F33.4°C 49.1°F9.5°C 23% 1.0 mph WSW1.6 kmh WSW 4.0 mph6.4 kmh 29.59 in1002.0 mb 0.00 in0.0 mm 0.00 in0.0 mm 0.00 in0.0 mm
07:11 PM 92.1°F33.4°C 49.0°F9.4°C 23% 1.0 mph WSW1.6 kmh WSW 2.0 mph3.2 kmh 29.59 in1002.0 mb 0.00 in0.0 mm 0.00 in0.0 mm 0.00 in0.0 mm
07:15 PM 92.0°F33.3°C 48.9°F9.4°C 23% 1.0 mph WSW1.6 kmh WSW 2.0 mph3.2 kmh 29.59 in1002.0 mb 0.00 in0.0 mm 0.00 in0.0 mm 0.00 in0.0 mm
07:16 PM 92.0°F33.3°C 49.0°F9.4°C 23% 1.0 mph WSW1.6 kmh WSW 2.0 mph3.2 kmh 29.59 in1002.0 mb 0.00 in0.0 mm 0.00 in0.0 mm 0.00 in0.0 mm
07:20 PM 91.8°F33.2°C 48.7°F9.3°C 23% 1.0 mph WSW1.6 kmh WSW 2.0 mph3.2 kmh 29.59 in1002.0 mb 0.00 in0.0 mm 0.00 in0.0 mm 0.00 in0.0 mm
07:21 PM 91.7°F33.2°C 49.0°F9.4°C 23% 3.0 mph WSW4.8 kmh WSW 3.0 mph4.8 kmh 29.59 in1002.0 mb 0.00 in0.0 mm 0.00 in0.0 mm 0.00 in0.0 mm
07:25 PM 91.5°F33.1°C 49.6°F9.8°C 24% 2.0 mph WSW3.2 kmh WSW 4.0 mph6.4 kmh 29.59 in1002.0 mb 0.00 in0.0 mm 0.00 in0.0 mm 0.00 in0.0 mm
07:26 PM 91.5°F33.1°C 50.0°F10.0°C 24% 3.0 mph WSW4.8 kmh WSW 4.0 mph6.4 kmh 29.59 in1002.0 mb 0.00 in0.0 mm 0.00 in0.0 mm 0.00 in0.0 mm
07:30 PM 91.4°F33.0°C 49.5°F9.7°C 24% 3.0 mph WSW4.8 kmh WSW 8.0 mph12.9 kmh 29.60 in1002.4 mb 0.00 in0.0 mm 0.00 in0.0 mm 0.00 in0.0 mm
07:31 PM 91.4°F33.0°C 50.0°F10.0°C 24% 2.0 mph SW3.2 kmh SW 8.0 mph12.9 kmh 29.60 in1002.4 mb 0.00 in0.0 mm 0.00 in0.0 mm 0.00 in0.0 mm
07:35 PM 91.3°F32.9°C 49.4°F9.7°C 24% 4.0 mph SW6.4 kmh SW 8.0 mph12.9 kmh 29.61 in1002.7 mb 0.00 in0.0 mm 0.00 in0.0 mm 0.00 in0.0 mm
07:36 PM 91.3°F32.9°C 50.0°F10.0°C 24% 4.0 mph WSW6.4 kmh WSW 8.0 mph12.9 kmh 29.61 in1002.7 mb 0.00 in0.0 mm 0.00 in0.0 mm 0.00 in0.0 mm
07:40 PM 91.1°F32.8°C 50.4°F10.2°C 25% 5.0 mph SW8.0 kmh SW 13.0 mph20.9 kmh 29.61 in1002.7 mb 0.00 in0.0 mm 0.00 in0.0 mm 0.00 in0.0 mm
07:41 PM 91.1°F32.8°C 51.0°F10.6°C 25% 2.0 mph WSW3.2 kmh WSW 13.0 mph20.9 kmh 29.61 in1002.7 mb 0.00 in0.0 mm 0.00 in0.0 mm 0.00 in0.0 mm
07:45 PM 90.9°F32.7°C 50.2°F10.1°C 25% 5.0 mph SW8.0 kmh SW 13.0 mph20.9 kmh 29.61 in1002.7 mb 0.00 in0.0 mm 0.00 in0.0 mm 0.00 in0.0 mm
07:46 PM 90.9°F32.7°C 51.0°F10.6°C 25% 7.0 mph WSW11.3 kmh WSW 13.0 mph20.9 kmh 29.61 in1002.7 mb 0.00 in0.0 mm 0.00 in0.0 mm 0.00 in0.0 mm
07:50 PM 90.7°F32.6°C 51.1°F10.6°C 26% 4.0 mph SW6.4 kmh SW 7.0 mph11.3 kmh 29.61 in1002.7 mb 0.00 in0.0 mm 0.00 in0.0 mm 0.00 in0.0 mm
07:51 PM 90.6°F32.6°C 51.0°F10.6°C 26% 1.0 mph WSW1.6 kmh WSW 6.0 mph9.7 kmh 29.61 in1002.7 mb 0.00 in0.0 mm 0.00 in0.0 mm 0.00 in0.0 mm
07:55 PM 90.5°F32.5°C 50.9°F10.5°C 26% 3.0 mph SW4.8 kmh SW 7.0 mph11.3 kmh 29.62 in1003.0 mb 0.00 in0.0 mm 0.00 in0.0 mm 0.00 in0.0 mm
07:56 PM 90.5°F32.5°C 51.0°F10.6°C 26% 2.0 mph SW3.2 kmh SW 7.0 mph11.3 kmh 29.62 in1003.0 mb 0.00 in0.0 mm 0.00 in0.0 mm 0.00 in0.0 mm
08:00 PM 90.3°F32.4°C 50.8°F10.4°C 26% 3.0 mph WSW4.8 kmh WSW 7.0 mph11.3 kmh 29.62 in1003.0 mb 0.00 in0.0 mm 0.00 in0.0 mm 0.00 in0.0 mm
08:01 PM 90.3°F32.4°C 51.0°F10.6°C 26% 2.0 mph WSW3.2 kmh WSW 5.0 mph8.0 kmh 29.62 in1003.0 mb 0.00 in0.0 mm 0.00 in0.0 mm 0.00 in0.0 mm
08:05 PM 90.3°F32.4°C 50.8°F10.4°C 26% 2.0 mph WSW3.2 kmh WSW 6.0 mph9.7 kmh 29.62 in1003.0 mb 0.00 in0.0 mm 0.00 in0.0 mm 0.00 in0.0 mm
08:06 PM 90.3°F32.4°C 51.0°F10.6°C 26% 1.0 mph WSW1.6 kmh WSW 5.0 mph8.0 kmh 29.62 in1003.0 mb 0.00 in0.0 mm 0.00 in0.0 mm 0.00 in0.0 mm
08:10 PM 90.3°F32.4°C 50.8°F10.4°C 26% 2.0 mph WSW3.2 kmh WSW 3.0 mph4.8 kmh 29.62 in1003.0 mb 0.00 in0.0 mm 0.00 in0.0 mm 0.00 in0.0 mm
08:15 PM 90.2°F32.3°C 50.7°F10.4°C 26% 2.0 mph WSW3.2 kmh WSW 6.0 mph9.7 kmh 29.62 in1003.0 mb 0.00 in0.0 mm 0.00 in0.0 mm 0.00 in0.0 mm
08:17 PM 90.2°F32.3°C 51.0°F10.6°C 26% 5.0 mph WSW8.0 kmh WSW 9.0 mph14.5 kmh 29.63 in1003.4 mb 0.00 in0.0 mm 0.00 in0.0 mm 0.00 in0.0 mm
08:20 PM 90.2°F32.3°C 50.7°F10.4°C 26% 4.0 mph W6.4 kmh W 9.0 mph14.5 kmh 29.63 in1003.4 mb 0.00 in0.0 mm 0.00 in0.0 mm 0.00 in0.0 mm
08:22 PM 90.2°F32.3°C 51.0°F10.6°C 26% 4.0 mph NW6.4 kmh NW 9.0 mph14.5 kmh 29.63 in1003.4 mb 0.00 in0.0 mm 0.00 in0.0 mm 0.00 in0.0 mm
08:25 PM 90.1°F32.3°C 51.6°F10.9°C 27% 5.0 mph WNW8.0 kmh WNW 14.0 mph22.5 kmh 29.63 in1003.4 mb 0.00 in0.0 mm 0.00 in0.0 mm 0.00 in0.0 mm
08:26 PM 90.1°F32.3°C 52.0°F11.1°C 27% 10.0 mph WNW16.1 kmh WNW 14.0 mph22.5 kmh 29.63 in1003.4 mb 0.00 in0.0 mm 0.00 in0.0 mm 0.00 in0.0 mm
08:30 PM 89.9°F32.2°C 51.4°F10.8°C 27% 6.0 mph NW9.7 kmh NW 14.0 mph22.5 kmh 29.63 in1003.4 mb 0.00 in0.0 mm 0.00 in0.0 mm 0.00 in0.0 mm
08:31 PM 89.8°F32.1°C 52.0°F11.1°C 27% 12.0 mph NW19.3 kmh NW 14.0 mph22.5 kmh 29.63 in1003.4 mb 0.00 in0.0 mm 0.00 in0.0 mm 0.00 in0.0 mm
08:35 PM 89.9°F32.2°C 50.4°F10.2°C 26% 6.0 mph NW9.7 kmh NW 12.0 mph19.3 kmh 29.63 in1003.4 mb 0.00 in0.0 mm 0.00 in0.0 mm 0.00 in0.0 mm
08:36 PM 89.9°F32.2°C 51.0°F10.6°C 26% 4.0 mph NNW6.4 kmh NNW 12.0 mph19.3 kmh 29.63 in1003.4 mb 0.00 in0.0 mm 0.00 in0.0 mm 0.00 in0.0 mm
08:40 PM 90.0°F32.2°C 50.5°F10.3°C 26% 5.0 mph NW8.0 kmh NW 12.0 mph19.3 kmh 29.63 in1003.4 mb 0.00 in0.0 mm 0.00 in0.0 mm 0.00 in0.0 mm
08:41 PM 90.0°F32.2°C 51.0°F10.6°C 26% 2.0 mph WNW3.2 kmh WNW 10.0 mph16.1 kmh 29.63 in1003.4 mb 0.00 in0.0 mm 0.00 in0.0 mm 0.00 in0.0 mm
08:45 PM 90.0°F32.2°C 50.5°F10.3°C 26% 3.0 mph WNW4.8 kmh WNW 10.0 mph16.1 kmh 29.63 in1003.4 mb 0.00 in0.0 mm 0.00 in0.0 mm 0.00 in0.0 mm
08:46 PM 90.0°F32.2°C 51.0°F10.6°C 26% 1.0 mph WNW1.6 kmh WNW 9.0 mph14.5 kmh 29.63 in1003.4 mb 0.00 in0.0 mm 0.00 in0.0 mm 0.00 in0.0 mm
08:50 PM 89.9°F32.2°C 50.4°F10.2°C 26% 2.0 mph W3.2 kmh W 4.0 mph6.4 kmh 29.63 in1003.4 mb 0.00 in0.0 mm 0.00 in0.0 mm 0.00 in0.0 mm
08:51 PM 89.8°F32.1°C 52.0°F11.1°C 27% 2.0 mph W3.2 kmh W 4.0 mph6.4 kmh 29.63 in1003.4 mb 0.00 in0.0 mm 0.00 in0.0 mm 0.00 in0.0 mm
08:55 PM 89.7°F32.1°C 51.3°F10.7°C 27% 2.0 mph W3.2 kmh W 4.0 mph6.4 kmh 29.64 in1003.7 mb 0.00 in0.0 mm 0.00 in0.0 mm 0.00 in0.0 mm
08:56 PM 89.7°F32.1°C 52.0°F11.1°C 27% 2.0 mph W3.2 kmh W 4.0 mph6.4 kmh 29.64 in1003.7 mb 0.00 in0.0 mm 0.00 in0.0 mm 0.00 in0.0 mm
09:00 PM 89.5°F31.9°C 51.1°F10.6°C 27% 2.0 mph W3.2 kmh W 3.0 mph4.8 kmh 29.64 in1003.7 mb 0.00 in0.0 mm 0.00 in0.0 mm 0.00 in0.0 mm
09:01 PM 89.4°F31.9°C 51.0°F10.6°C 27% 2.0 mph W3.2 kmh W 3.0 mph4.8 kmh 29.64 in1003.7 mb 0.00 in0.0 mm 0.00 in0.0 mm 0.00 in0.0 mm
09:05 PM 89.2°F31.8°C 50.8°F10.4°C 27% 2.0 mph W3.2 kmh W 3.0 mph4.8 kmh 29.64 in1003.7 mb 0.00 in0.0 mm 0.00 in0.0 mm 0.00 in0.0 mm
09:06 PM 89.2°F31.8°C 51.0°F10.6°C 27% 2.0 mph W3.2 kmh W 3.0 mph4.8 kmh 29.64 in1003.7 mb 0.00 in0.0 mm 0.00 in0.0 mm 0.00 in0.0 mm
09:10 PM 88.8°F31.6°C 50.5°F10.3°C 27% 2.0 mph WSW3.2 kmh WSW 6.0 mph9.7 kmh 29.64 in1003.7 mb 0.00 in0.0 mm 0.00 in0.0 mm 0.00 in0.0 mm
09:11 PM 88.7°F31.5°C 51.0°F10.6°C 27% 3.0 mph WSW4.8 kmh WSW 7.0 mph11.3 kmh 29.64 in1003.7 mb 0.00 in0.0 mm 0.00 in0.0 mm 0.00 in0.0 mm
09:15 PM 88.6°F31.4°C 50.3°F10.2°C 27% 3.0 mph WSW4.8 kmh WSW 6.0 mph9.7 kmh 29.64 in1003.7 mb 0.00 in0.0 mm 0.00 in0.0 mm 0.00 in0.0 mm
09:16 PM 88.6°F31.4°C 51.0°F10.6°C 27% 4.0 mph SW6.4 kmh SW 7.0 mph11.3 kmh 29.64 in1003.7 mb 0.00 in0.0 mm 0.00 in0.0 mm 0.00 in0.0 mm
09:20 PM 88.4°F31.3°C 50.2°F10.1°C 27% 3.0 mph WSW4.8 kmh WSW 7.0 mph11.3 kmh 29.64 in1003.7 mb 0.00 in0.0 mm 0.00 in0.0 mm 0.00 in0.0 mm
09:21 PM 88.4°F31.3°C 50.0°F10.0°C 27% 2.0 mph WSW3.2 kmh WSW 7.0 mph11.3 kmh 29.64 in1003.7 mb 0.00 in0.0 mm 0.00 in0.0 mm 0.00 in0.0 mm
09:25 PM 88.4°F31.3°C 51.1°F10.6°C 28% 3.0 mph WSW4.8 kmh WSW 8.0 mph12.9 kmh 29.64 in1003.7 mb 0.00 in0.0 mm 0.00 in0.0 mm 0.00 in0.0 mm
09:26 PM 88.4°F31.3°C 51.0°F10.6°C 28% 2.0 mph SW3.2 kmh SW 7.0 mph11.3 kmh 29.64 in1003.7 mb 0.00 in0.0 mm 0.00 in0.0 mm 0.00 in0.0 mm
09:30 PM 88.2°F31.2°C 51.0°F10.6°C 28% 3.0 mph WSW4.8 kmh WSW 8.0 mph12.9 kmh 29.64 in1003.7 mb 0.00 in0.0 mm 0.00 in0.0 mm 0.00 in0.0 mm
09:31 PM 88.2°F31.2°C 51.0°F10.6°C 28% 2.0 mph WSW3.2 kmh WSW 8.0 mph12.9 kmh 29.64 in1003.7 mb 0.00 in0.0 mm 0.00 in0.0 mm 0.00 in0.0 mm
09:35 PM 88.1°F31.2°C 50.9°F10.5°C 28% 4.0 mph WSW6.4 kmh WSW 8.0 mph12.9 kmh 29.65 in1004.1 mb 0.00 in0.0 mm 0.00 in0.0 mm 0.00 in0.0 mm
09:36 PM 88.1°F31.2°C 51.0°F10.6°C 28% 4.0 mph WSW6.4 kmh WSW 8.0 mph12.9 kmh 29.65 in1004.1 mb 0.00 in0.0 mm 0.00 in0.0 mm 0.00 in0.0 mm
09:40 PM 87.9°F31.1°C 51.7°F10.9°C 29% 3.0 mph WSW4.8 kmh WSW 9.0 mph14.5 kmh 29.65 in1004.1 mb 0.00 in0.0 mm 0.00 in0.0 mm 0.00 in0.0 mm
09:41 PM 87.8°F31.0°C 52.0°F11.1°C 29% 4.0 mph SW6.4 kmh SW 9.0 mph14.5 kmh 29.65 in1004.1 mb 0.00 in0.0 mm 0.00 in0.0 mm 0.00 in0.0 mm
09:45 PM 87.7°F30.9°C 51.5°F10.8°C 29% 4.0 mph WSW6.4 kmh WSW 9.0 mph14.5 kmh 29.65 in1004.1 mb 0.00 in0.0 mm 0.00 in0.0 mm 0.00 in0.0 mm
09:46 PM 87.7°F30.9°C 52.0°F11.1°C 29% 4.0 mph WSW6.4 kmh WSW 7.0 mph11.3 kmh 29.65 in1004.1 mb 0.00 in0.0 mm 0.00 in0.0 mm 0.00 in0.0 mm
09:50 PM 87.5°F30.8°C 51.3°F10.7°C 29% 4.0 mph WSW6.4 kmh WSW 7.0 mph11.3 kmh 29.65 in1004.1 mb 0.00 in0.0 mm 0.00 in0.0 mm 0.00 in0.0 mm
09:51 PM 87.5°F30.8°C 52.0°F11.1°C 29% 3.0 mph WSW4.8 kmh WSW 7.0 mph11.3 kmh 29.65 in1004.1 mb 0.00 in0.0 mm 0.00 in0.0 mm 0.00 in0.0 mm
09:55 PM 87.4°F30.8°C 51.2°F10.7°C 29% 3.0 mph WSW4.8 kmh WSW 7.0 mph11.3 kmh 29.65 in1004.1 mb 0.00 in0.0 mm 0.00 in0.0 mm 0.00 in0.0 mm
09:56 PM 87.4°F30.8°C 51.0°F10.6°C 29% 1.0 mph SW1.6 kmh SW 7.0 mph11.3 kmh 29.65 in1004.1 mb 0.00 in0.0 mm 0.00 in0.0 mm 0.00 in0.0 mm
10:00 PM 87.3°F30.7°C 52.1°F11.2°C 30% 3.0 mph WSW4.8 kmh WSW 6.0 mph9.7 kmh 29.65 in1004.1 mb 0.00 in0.0 mm 0.00 in0.0 mm 0.00 in0.0 mm
10:01 PM 87.3°F30.7°C 52.0°F11.1°C 30% 2.0 mph SW3.2 kmh SW 6.0 mph9.7 kmh 29.65 in1004.1 mb 0.00 in0.0 mm 0.00 in0.0 mm 0.00 in0.0 mm
10:05 PM 87.2°F30.7°C 52.0°F11.1°C 30% 3.0 mph WSW4.8 kmh WSW 6.0 mph9.7 kmh 29.65 in1004.1 mb 0.00 in0.0 mm 0.00 in0.0 mm 0.00 in0.0 mm
10:06 PM 87.2°F30.7°C 52.0°F11.1°C 30% 2.0 mph W3.2 kmh W 5.0 mph8.0 kmh 29.65 in1004.1 mb 0.00 in0.0 mm 0.00 in0.0 mm 0.00 in0.0 mm
10:10 PM 87.1°F30.6°C 51.9°F11.1°C 30% 3.0 mph WSW4.8 kmh WSW 6.0 mph9.7 kmh 29.66 in1004.4 mb 0.00 in0.0 mm 0.00 in0.0 mm 0.00 in0.0 mm
10:11 PM 87.1°F30.6°C 52.0°F11.1°C 30% 1.0 mph SW1.6 kmh SW 6.0 mph9.7 kmh 29.66 in1004.4 mb 0.00 in0.0 mm 0.00 in0.0 mm 0.00 in0.0 mm
10:15 PM 87.0°F30.6°C 51.8°F11.0°C 30% 3.0 mph WSW4.8 kmh WSW 6.0 mph9.7 kmh 29.66 in1004.4 mb 0.00 in0.0 mm 0.00 in0.0 mm 0.00 in0.0 mm
10:16 PM 87.0°F30.6°C 52.0°F11.1°C 30% 1.0 mph WSW1.6 kmh WSW 4.0 mph6.4 kmh 29.66 in1004.4 mb 0.00 in0.0 mm 0.00 in0.0 mm 0.00 in0.0 mm
10:20 PM 86.8°F30.4°C 51.6°F10.9°C 30% 2.0 mph WSW3.2 kmh WSW 6.0 mph9.7 kmh 29.66 in1004.4 mb 0.00 in0.0 mm 0.00 in0.0 mm 0.00 in0.0 mm
10:21 PM 86.8°F30.4°C 52.0°F11.1°C 30% 2.0 mph WSW3.2 kmh WSW 5.0 mph8.0 kmh 29.66 in1004.4 mb 0.00 in0.0 mm 0.00 in0.0 mm 0.00 in0.0 mm
10:25 PM 86.7°F30.4°C 51.6°F10.9°C 30% 2.0 mph WSW3.2 kmh WSW 6.0 mph9.7 kmh 29.66 in1004.4 mb 0.00 in0.0 mm 0.00 in0.0 mm 0.00 in0.0 mm
10:26 PM 86.7°F30.4°C 52.0°F11.1°C 30% 3.0 mph WSW4.8 kmh WSW 5.0 mph8.0 kmh 29.66 in1004.4 mb 0.00 in0.0 mm 0.00 in0.0 mm 0.00 in0.0 mm
10:30 PM 86.6°F30.3°C 52.4°F11.3°C 31% 2.0 mph WSW3.2 kmh WSW 4.0 mph6.4 kmh 29.66 in1004.4 mb 0.00 in0.0 mm 0.00 in0.0 mm 0.00 in0.0 mm
10:31 PM 86.6°F30.3°C 53.0°F11.7°C 31% 3.0 mph WSW4.8 kmh WSW 4.0 mph6.4 kmh 29.66 in1004.4 mb 0.00 in0.0 mm 0.00 in0.0 mm 0.00 in0.0 mm
10:35 PM 86.5°F30.3°C 52.3°F11.3°C 31% 2.0 mph WSW3.2 kmh WSW 4.0 mph6.4 kmh 29.66 in1004.4 mb 0.00 in0.0 mm 0.00 in0.0 mm 0.00 in0.0 mm
10:36 PM 86.5°F30.3°C 52.0°F11.1°C 31% 2.0 mph WSW3.2 kmh WSW 4.0 mph6.4 kmh 29.66 in1004.4 mb 0.00 in0.0 mm 0.00 in0.0 mm 0.00 in0.0 mm
10:40 PM 86.3°F30.2°C 52.1°F11.2°C 31% 2.0 mph SW3.2 kmh SW 4.0 mph6.4 kmh 29.66 in1004.4 mb 0.00 in0.0 mm 0.00 in0.0 mm 0.00 in0.0 mm
10:41 PM 86.3°F30.2°C 52.0°F11.1°C 31% 1.0 mph SW1.6 kmh SW 4.0 mph6.4 kmh 29.66 in1004.4 mb 0.00 in0.0 mm 0.00 in0.0 mm 0.00 in0.0 mm
10:45 PM 86.2°F30.1°C 52.0°F11.1°C 31% 2.0 mph SW3.2 kmh SW 4.0 mph6.4 kmh 29.66 in1004.4 mb 0.00 in0.0 mm 0.00 in0.0 mm 0.00 in0.0 mm
10:46 PM 86.2°F30.1°C 52.0°F11.1°C 31% 3.0 mph SW4.8 kmh SW 4.0 mph6.4 kmh 29.66 in1004.4 mb 0.00 in0.0 mm 0.00 in0.0 mm 0.00 in0.0 mm
10:50 PM 86.0°F30.0°C 51.8°F11.0°C 31% 2.0 mph SW3.2 kmh SW 4.0 mph6.4 kmh 29.67 in1004.7 mb 0.00 in0.0 mm 0.00 in0.0 mm 0.00 in0.0 mm
10:51 PM 86.0°F30.0°C 52.0°F11.1°C 31% 1.0 mph SW1.6 kmh SW 4.0 mph6.4 kmh 29.67 in1004.7 mb 0.00 in0.0 mm 0.00 in0.0 mm 0.00 in0.0 mm
10:55 PM 85.9°F29.9°C 52.6°F11.4°C 32% 1.0 mph SW1.6 kmh SW 4.0 mph6.4 kmh 29.67 in1004.7 mb 0.00 in0.0 mm 0.00 in0.0 mm 0.00 in0.0 mm
10:56 PM 85.9°F29.9°C 53.0°F11.7°C 32% Calm Calm 3.0 mph4.8 kmh 29.67 in1004.7 mb 0.00 in0.0 mm 0.00 in0.0 mm 0.00 in0.0 mm
11:00 PM 85.7°F29.8°C 52.4°F11.3°C 32% 1.0 mph SW1.6 kmh SW 3.0 mph4.8 kmh 29.67 in1004.7 mb 0.00 in0.0 mm 0.00 in0.0 mm 0.00 in0.0 mm
11:01 PM 85.6°F29.8°C 53.0°F11.7°C 32% 1.0 mph SW1.6 kmh SW 3.0 mph4.8 kmh 29.67 in1004.7 mb 0.00 in0.0 mm 0.00 in0.0 mm 0.00 in0.0 mm
11:05 PM 85.5°F29.7°C 52.3°F11.3°C 32% 1.0 mph SW1.6 kmh SW 3.0 mph4.8 kmh 29.67 in1004.7 mb 0.00 in0.0 mm 0.00 in0.0 mm 0.00 in0.0 mm
11:06 PM 85.5°F29.7°C 52.0°F11.1°C 32% Calm Calm 3.0 mph4.8 kmh 29.67 in1004.7 mb 0.00 in0.0 mm 0.00 in0.0 mm 0.00 in0.0 mm
11:10 PM 85.3°F29.6°C 52.1°F11.2°C 32% 1.0 mph SW1.6 kmh SW 2.0 mph3.2 kmh 29.67 in1004.7 mb 0.00 in0.0 mm 0.00 in0.0 mm 0.00 in0.0 mm
11:11 PM 85.2°F29.6°C 52.0°F11.1°C 32% Calm Calm 2.0 mph3.2 kmh 29.67 in1004.7 mb 0.00 in0.0 mm 0.00 in0.0 mm 0.00 in0.0 mm
11:15 PM 85.1°F29.5°C 51.9°F11.1°C 32% Calm Calm 2.0 mph3.2 kmh 29.67 in1004.7 mb 0.00 in0.0 mm 0.00 in0.0 mm 0.00 in0.0 mm
11:16 PM 85.1°F29.5°C 52.0°F11.1°C 32% Calm Calm 2.0 mph3.2 kmh 29.67 in1004.7 mb 0.00 in0.0 mm 0.00 in0.0 mm 0.00 in0.0 mm
11:20 PM 84.9°F29.4°C 52.6°F11.4°C 33% Calm Calm 1.0 mph1.6 kmh 29.67 in1004.7 mb 0.00 in0.0 mm 0.00 in0.0 mm 0.00 in0.0 mm
11:21 PM 84.9°F29.4°C 53.0°F11.7°C 33% Calm Calm 1.0 mph1.6 kmh 29.67 in1004.7 mb 0.00 in0.0 mm 0.00 in0.0 mm 0.00 in0.0 mm
11:25 PM 84.7°F29.3°C 52.4°F11.3°C 33% Calm Calm -- 29.67 in1004.7 mb 0.00 in0.0 mm 0.00 in0.0 mm 0.00 in0.0 mm
11:26 PM 84.7°F29.3°C 53.0°F11.7°C 33% Calm Calm -- 29.67 in1004.7 mb 0.00 in0.0 mm 0.00 in0.0 mm 0.00 in0.0 mm
11:30 PM 84.4°F29.1°C 52.1°F11.2°C 33% Calm Calm -- 29.67 in1004.7 mb 0.00 in0.0 mm 0.00 in0.0 mm 0.00 in0.0 mm
11:31 PM 84.3°F29.1°C 52.0°F11.1°C 33% 1.0 mph SW1.6 kmh SW 1.0 mph1.6 kmh 29.67 in1004.7 mb 0.00 in0.0 mm 0.00 in0.0 mm 0.00 in0.0 mm
11:35 PM 84.1°F28.9°C 52.7°F11.5°C 34% Calm Calm 2.0 mph3.2 kmh 29.67 in1004.7 mb 0.00 in0.0 mm 0.00 in0.0 mm 0.00 in0.0 mm
11:36 PM 84.1°F28.9°C 53.0°F11.7°C 34% 2.0 mph SW3.2 kmh SW 2.0 mph3.2 kmh 29.67 in1004.7 mb 0.00 in0.0 mm 0.00 in0.0 mm 0.00 in0.0 mm
11:40 PM 83.7°F28.7°C 53.1°F11.7°C 35% 1.0 mph SW1.6 kmh SW 3.0 mph4.8 kmh 29.67 in1004.7 mb 0.00 in0.0 mm 0.00 in0.0 mm 0.00 in0.0 mm
11:41 PM 83.6°F28.7°C 53.0°F11.7°C 35% 1.0 mph SW1.6 kmh SW 3.0 mph4.8 kmh 29.67 in1004.7 mb 0.00 in0.0 mm 0.00 in0.0 mm 0.00 in0.0 mm
11:45 PM 83.3°F28.5°C 53.6°F12.0°C 36% 2.0 mph SW3.2 kmh SW 3.0 mph4.8 kmh 29.67 in1004.7 mb 0.00 in0.0 mm 0.00 in0.0 mm 0.00 in0.0 mm
11:46 PM 83.3°F28.5°C 54.0°F12.2°C 36% 1.0 mph SW1.6 kmh SW 3.0 mph4.8 kmh 29.67 in1004.7 mb 0.00 in0.0 mm 0.00 in0.0 mm 0.00 in0.0 mm
11:50 PM 83.0°F28.3°C 53.3°F11.8°C 36% 2.0 mph SW3.2 kmh SW 3.0 mph4.8 kmh 29.67 in1004.7 mb 0.00 in0.0 mm 0.00 in0.0 mm 0.00 in0.0 mm
11:51 PM 82.9°F28.3°C 53.0°F11.7°C 36% 2.0 mph SW3.2 kmh SW 3.0 mph4.8 kmh 29.67 in1004.7 mb 0.00 in0.0 mm 0.00 in0.0 mm 0.00 in0.0 mm
11:55 PM 82.7°F28.2°C 53.8°F12.1°C 37% 1.0 mph SW1.6 kmh SW 3.0 mph4.8 kmh 29.67 in1004.7 mb 0.00 in0.0 mm 0.00 in0.0 mm 0.00 in0.0 mm
11:56 PM 82.7°F28.2°C 54.0°F12.2°C 37% Calm Calm 3.0 mph4.8 kmh 29.67 in1004.7 mb 0.00 in0.0 mm 0.00 in0.0 mm 0.00 in0.0 mm